UAL617 EDDF-KBOS
Flight info
| Callsign | UAL617 |
|---|---|
| Flight time | 7h 50m |
| Altitude | 34000 |
| Route | OBOKA5G/25C OBOKA Z28 DIBIR DCT BUDIP DCT RAVLO Y70 OTBED L60 PENIL M144 BAGSO DCT NEBIN/M084F360 DCT 5330N02000W 5430N03000W 5430N04000W 5230N05000W DCT SAXAN/N0483F360 N550A TOPPS DCT AJJAY OOSHN5 |
| Aircraft | B77W/H-SDE1E2E3FGHIJ2J3J4J5M1RWXY/LB1D1 |
Departure
| Time | 2026-04-17 21:58 |
|---|---|
| Airport | Frankfurt Main Airport (EDDF) |
Arrival
| Time | 2026-04-18 05:48 |
|---|---|
| Airport | Boston Logan International Airport (KBOS) |
| Time | Latitude | Longitude | Altitude | Speed | Heading |
|---|---|---|---|---|---|
| 2026-04-17 21:14 | 50.04749 | 8.56391 | 358 ft | 0 kts | 340° |
| 2026-04-17 21:45 | 50.04741 | 8.56395 | 358 ft | 2 kts | 338° |
| 2026-04-17 21:45 | 50.04732 | 8.56401 | 358 ft | 1 kts | 338° |
| 2026-04-17 21:45 | 50.04718 | 8.56412 | 358 ft | 2 kts | 321° |
| 2026-04-17 21:46 | 50.04706 | 8.56434 | 358 ft | 2 kts | 295° |
| 2026-04-17 21:46 | 50.04701 | 8.56460 | 358 ft | 2 kts | 273° |
| 2026-04-17 21:46 | 50.04702 | 8.56485 | 358 ft | 2 kts | 253° |
| 2026-04-17 21:47 | 50.04687 | 8.56416 | 358 ft | 7 kts | 249° |
| 2026-04-17 21:47 | 50.04668 | 8.56339 | 358 ft | 7 kts | 249° |
| 2026-04-17 21:47 | 50.04649 | 8.56262 | 358 ft | 7 kts | 249° |
| 2026-04-17 21:47 | 50.04629 | 8.56183 | 358 ft | 7 kts | 249° |
| 2026-04-17 21:48 | 50.04611 | 8.56108 | 358 ft | 6 kts | 250° |
| 2026-04-17 21:48 | 50.04602 | 8.56070 | 358 ft | 0 kts | 251° |
| 2026-04-17 21:48 | 50.04602 | 8.56068 | 358 ft | 0 kts | 251° |
| 2026-04-17 21:50 | 50.04601 | 8.56061 | 358 ft | 2 kts | 251° |
| 2026-04-17 21:50 | 50.04580 | 8.56000 | 358 ft | 10 kts | 228° |
| 2026-04-17 21:50 | 50.04505 | 8.55945 | 358 ft | 12 kts | 200° |
| 2026-04-17 21:50 | 50.04422 | 8.55909 | 358 ft | 12 kts | 186° |
| 2026-04-17 21:51 | 50.04355 | 8.55920 | 358 ft | 5 kts | 160° |
| 2026-04-17 21:51 | 50.04311 | 8.55945 | 358 ft | 9 kts | 160° |
| 2026-04-17 21:51 | 50.04236 | 8.55933 | 358 ft | 13 kts | 211° |
| 2026-04-17 21:51 | 50.04155 | 8.55936 | 357 ft | 11 kts | 161° |
| 2026-04-17 21:52 | 50.04082 | 8.55984 | 357 ft | 11 kts | 137° |
| 2026-04-17 21:52 | 50.04081 | 8.56085 | 357 ft | 10 kts | 70° |
| 2026-04-17 21:52 | 50.04108 | 8.56200 | 357 ft | 12 kts | 70° |
| 2026-04-17 21:52 | 50.04142 | 8.56340 | 358 ft | 14 kts | 70° |
| 2026-04-17 21:53 | 50.04179 | 8.56495 | 358 ft | 16 kts | 70° |
| 2026-04-17 21:53 | 50.04220 | 8.56671 | 358 ft | 18 kts | 70° |
| 2026-04-17 21:53 | 50.04265 | 8.56860 | 358 ft | 19 kts | 70° |
| 2026-04-17 21:53 | 50.04315 | 8.57066 | 358 ft | 21 kts | 70° |
| 2026-04-17 21:54 | 50.04367 | 8.57284 | 357 ft | 22 kts | 70° |
| 2026-04-17 21:54 | 50.04422 | 8.57515 | 358 ft | 23 kts | 70° |
| 2026-04-17 21:54 | 50.04480 | 8.57755 | 358 ft | 24 kts | 70° |
| 2026-04-17 21:54 | 50.04536 | 8.57988 | 358 ft | 22 kts | 70° |
| 2026-04-17 21:55 | 50.04588 | 8.58207 | 358 ft | 20 kts | 70° |
| 2026-04-17 21:55 | 50.04635 | 8.58401 | 357 ft | 18 kts | 70° |
| 2026-04-17 21:55 | 50.04642 | 8.58552 | 358 ft | 12 kts | 132° |
| 2026-04-17 21:55 | 50.04561 | 8.58608 | 358 ft | 12 kts | 159° |
| 2026-04-17 21:56 | 50.04493 | 8.58598 | 358 ft | 10 kts | 231° |
| 2026-04-17 21:56 | 50.04484 | 8.58572 | 358 ft | 0 kts | 251° |
| 2026-04-17 21:57 | 50.04469 | 8.58508 | 358 ft | 26 kts | 250° |
| 2026-04-17 21:57 | 50.04319 | 8.57881 | 358 ft | 99 kts | 250° |
| 2026-04-17 21:57 | 50.03995 | 8.56529 | 358 ft | 166 kts | 250° |
| 2026-04-17 21:58 | 50.03542 | 8.54609 | 648 ft | 198 kts | 250° |
| 2026-04-17 21:58 | 50.03048 | 8.52557 | 1430 ft | 207 kts | 250° |
| 2026-04-17 21:58 | 50.02648 | 8.50448 | 2192 ft | 207 kts | 264° |
| 2026-04-17 21:58 | 50.02738 | 8.48105 | 2644 ft | 222 kts | 279° |
| 2026-04-17 21:59 | 50.02978 | 8.45613 | 3144 ft | 237 kts | 276° |
| 2026-04-17 21:59 | 50.02884 | 8.42953 | 3655 ft | 253 kts | 261° |
| 2026-04-17 21:59 | 50.02545 | 8.40185 | 4384 ft | 262 kts | 259° |
| 2026-04-17 21:59 | 50.02211 | 8.37502 | 5205 ft | 265 kts | 259° |
| 2026-04-17 22:00 | 50.01867 | 8.34663 | 6056 ft | 268 kts | 258° |
| 2026-04-17 22:00 | 50.01518 | 8.31755 | 6931 ft | 270 kts | 258° |
| 2026-04-17 22:00 | 50.01327 | 8.28816 | 7722 ft | 273 kts | 274° |
| 2026-04-17 22:00 | 50.01847 | 8.25880 | 8527 ft | 276 kts | 291° |
| 2026-04-17 22:01 | 50.02625 | 8.23125 | 9320 ft | 279 kts | 293° |
| 2026-04-17 22:01 | 50.03432 | 8.20380 | 10081 ft | 282 kts | 293° |
| 2026-04-17 22:01 | 50.04245 | 8.17605 | 10678 ft | 292 kts | 292° |
| 2026-04-17 22:01 | 50.05109 | 8.14636 | 11130 ft | 308 kts | 293° |
| 2026-04-17 22:02 | 50.06137 | 8.11643 | 11512 ft | 325 kts | 302° |
| 2026-04-17 22:02 | 50.07538 | 8.08748 | 11939 ft | 342 kts | 307° |
| 2026-04-17 22:02 | 50.09059 | 8.05826 | 12430 ft | 357 kts | 307° |
| 2026-04-17 22:02 | 50.10645 | 8.02769 | 12928 ft | 371 kts | 307° |
| 2026-04-17 22:03 | 50.12301 | 7.99560 | 13471 ft | 384 kts | 307° |
| 2026-04-17 22:03 | 50.13974 | 7.96308 | 14244 ft | 389 kts | 307° |
| 2026-04-17 22:03 | 50.15668 | 7.93011 | 15076 ft | 393 kts | 307° |
| 2026-04-17 22:03 | 50.17376 | 7.89680 | 15875 ft | 397 kts | 307° |
| 2026-04-17 22:04 | 50.19083 | 7.86347 | 16671 ft | 400 kts | 307° |
| 2026-04-17 22:04 | 50.20832 | 7.82925 | 17436 ft | 404 kts | 307° |
| 2026-04-17 22:04 | 50.22587 | 7.79489 | 18175 ft | 408 kts | 307° |
| 2026-04-17 22:04 | 50.24462 | 7.76208 | 18898 ft | 413 kts | 315° |
| 2026-04-17 22:05 | 50.26703 | 7.73378 | 19590 ft | 420 kts | 324° |
| 2026-04-17 22:05 | 50.29284 | 7.71133 | 20387 ft | 424 kts | 333° |
| 2026-04-17 22:05 | 50.31947 | 7.69297 | 21082 ft | 428 kts | 335° |
| 2026-04-17 22:05 | 50.34711 | 7.67426 | 21680 ft | 433 kts | 335° |
| 2026-04-17 22:06 | 50.37474 | 7.65548 | 22296 ft | 438 kts | 335° |
| 2026-04-17 22:06 | 50.40276 | 7.63637 | 22958 ft | 442 kts | 335° |
| 2026-04-17 22:06 | 50.43074 | 7.61722 | 23628 ft | 444 kts | 335° |
| 2026-04-17 22:06 | 50.45942 | 7.59754 | 24254 ft | 448 kts | 334° |
| 2026-04-17 22:07 | 50.48772 | 7.57807 | 24830 ft | 452 kts | 334° |
| 2026-04-17 22:07 | 50.51685 | 7.55799 | 25373 ft | 457 kts | 334° |
| 2026-04-17 22:07 | 50.54579 | 7.53791 | 25984 ft | 459 kts | 333° |
| 2026-04-17 22:07 | 50.57371 | 7.51358 | 26581 ft | 459 kts | 326° |
| 2026-04-17 22:08 | 50.60048 | 7.48646 | 27125 ft | 462 kts | 325° |
| 2026-04-17 22:08 | 50.62723 | 7.45904 | 27637 ft | 466 kts | 325° |
| 2026-04-17 22:08 | 50.65448 | 7.43106 | 28176 ft | 469 kts | 325° |
| 2026-04-17 22:08 | 50.68211 | 7.40268 | 28683 ft | 473 kts | 325° |
| 2026-04-17 22:09 | 50.70948 | 7.37448 | 29170 ft | 476 kts | 324° |
| 2026-04-17 22:09 | 50.73594 | 7.34207 | 29706 ft | 476 kts | 315° |
| 2026-04-17 22:09 | 50.75980 | 7.30215 | 30499 ft | 471 kts | 307° |
| 2026-04-17 22:09 | 50.77939 | 7.26035 | 31304 ft | 466 kts | 304° |
| 2026-04-17 22:10 | 50.79850 | 7.21782 | 31977 ft | 465 kts | 303° |
| 2026-04-17 22:10 | 50.81823 | 7.17368 | 32546 ft | 465 kts | 303° |
| 2026-04-17 22:10 | 50.83787 | 7.12962 | 33060 ft | 466 kts | 303° |
| 2026-04-17 22:10 | 50.85645 | 7.08788 | 33581 ft | 465 kts | 303° |
| 2026-04-17 22:11 | 50.87484 | 7.04648 | 34087 ft | 464 kts | 303° |
| 2026-04-17 22:11 | 50.89407 | 7.00311 | 34211 ft | 468 kts | 303° |
| 2026-04-17 22:11 | 50.91300 | 6.96034 | 34215 ft | 466 kts | 303° |
| 2026-04-17 22:12 | 50.95007 | 6.87648 | 34204 ft | 464 kts | 302° |
| 2026-04-17 22:12 | 50.98682 | 6.79302 | 34217 ft | 465 kts | 303° |
| 2026-04-17 22:13 | 51.02380 | 6.70879 | 34206 ft | 464 kts | 302° |
| 2026-04-17 22:13 | 51.06058 | 6.62474 | 34214 ft | 465 kts | 303° |
| 2026-04-17 22:14 | 51.09752 | 6.54005 | 34208 ft | 465 kts | 302° |
| 2026-04-17 22:14 | 51.13760 | 6.44779 | 34210 ft | 466 kts | 302° |
| 2026-04-17 22:15 | 51.17562 | 6.35995 | 34205 ft | 465 kts | 302° |
| 2026-04-17 22:15 | 51.21543 | 6.26767 | 34217 ft | 466 kts | 301° |
| 2026-04-17 22:16 | 51.25361 | 6.17886 | 34215 ft | 466 kts | 301° |
| 2026-04-17 22:16 | 51.29149 | 6.08973 | 34214 ft | 465 kts | 300° |
| 2026-04-17 22:17 | 51.32901 | 5.99789 | 34219 ft | 466 kts | 300° |
| 2026-04-17 22:17 | 51.36463 | 5.91045 | 34208 ft | 464 kts | 300° |
| 2026-04-17 22:18 | 51.40721 | 5.82693 | 34209 ft | 471 kts | 310° |
| 2026-04-17 22:18 | 51.45367 | 5.74881 | 34208 ft | 470 kts | 310° |
| 2026-04-17 22:19 | 51.49805 | 5.67393 | 34205 ft | 472 kts | 310° |
| 2026-04-17 22:19 | 51.54237 | 5.59889 | 34196 ft | 470 kts | 310° |
| 2026-04-17 22:20 | 51.58608 | 5.52460 | 34197 ft | 472 kts | 310° |
| 2026-04-17 22:20 | 51.63041 | 5.44905 | 34193 ft | 468 kts | 310° |
| 2026-04-17 22:21 | 51.67303 | 5.37614 | 34200 ft | 472 kts | 310° |
| 2026-04-17 22:21 | 51.71653 | 5.30154 | 34200 ft | 470 kts | 309° |
| 2026-04-17 22:22 | 51.75803 | 5.23013 | 34201 ft | 470 kts | 309° |
| 2026-04-17 22:22 | 51.79834 | 5.16061 | 34201 ft | 468 kts | 309° |
| 2026-04-17 22:23 | 51.83895 | 5.09033 | 34202 ft | 471 kts | 309° |
| 2026-04-17 22:23 | 51.87877 | 5.02125 | 34203 ft | 470 kts | 309° |
| 2026-04-17 22:24 | 51.91939 | 4.95055 | 34200 ft | 470 kts | 309° |
| 2026-04-17 22:24 | 51.96127 | 4.87747 | 34206 ft | 469 kts | 309° |
| 2026-04-17 22:25 | 52.00440 | 4.80199 | 34209 ft | 470 kts | 309° |
| 2026-04-17 22:25 | 52.04792 | 4.72559 | 34218 ft | 470 kts | 308° |
| 2026-04-17 22:26 | 52.09166 | 4.64856 | 34216 ft | 467 kts | 308° |
| 2026-04-17 22:26 | 52.13486 | 4.57224 | 34210 ft | 468 kts | 308° |
| 2026-04-17 22:27 | 52.17844 | 4.49502 | 34210 ft | 467 kts | 308° |
| 2026-04-17 22:27 | 52.22200 | 4.41758 | 34202 ft | 467 kts | 308° |
| 2026-04-17 22:28 | 52.26585 | 4.33939 | 34212 ft | 468 kts | 308° |
| 2026-04-17 22:28 | 52.30899 | 4.26224 | 34213 ft | 466 kts | 307° |
| 2026-04-17 22:29 | 52.35214 | 4.18478 | 34215 ft | 467 kts | 308° |
| 2026-04-17 22:29 | 52.39561 | 4.10655 | 34215 ft | 466 kts | 307° |
| 2026-04-17 22:30 | 52.43876 | 4.02864 | 34212 ft | 466 kts | 307° |
| 2026-04-17 22:30 | 52.48135 | 3.95148 | 34206 ft | 467 kts | 307° |
| 2026-04-17 22:31 | 52.52423 | 3.87358 | 34201 ft | 468 kts | 307° |
| 2026-04-17 22:31 | 52.56771 | 3.79433 | 34200 ft | 466 kts | 307° |
| 2026-04-17 22:32 | 52.61073 | 3.71565 | 34187 ft | 466 kts | 307° |
| 2026-04-17 22:32 | 52.65070 | 3.64236 | 34185 ft | 466 kts | 307° |
| 2026-04-17 22:33 | 52.69347 | 3.56367 | 34185 ft | 466 kts | 307° |
| 2026-04-17 22:33 | 52.73582 | 3.48548 | 34185 ft | 468 kts | 306° |
| 2026-04-17 22:34 | 52.77835 | 3.40676 | 34166 ft | 466 kts | 306° |
| 2026-04-17 22:34 | 52.82087 | 3.32777 | 34163 ft | 467 kts | 306° |
| 2026-04-17 22:35 | 52.86353 | 3.24828 | 34188 ft | 466 kts | 305° |
| 2026-04-17 22:35 | 52.90230 | 3.16448 | 34165 ft | 457 kts | 293° |
| 2026-04-17 22:36 | 52.92544 | 3.06863 | 34158 ft | 446 kts | 279° |
| 2026-04-17 22:36 | 52.93953 | 2.97003 | 34174 ft | 444 kts | 278° |
| 2026-04-17 22:37 | 52.95305 | 2.87103 | 34163 ft | 441 kts | 277° |
| 2026-04-17 22:37 | 52.96608 | 2.77303 | 34136 ft | 442 kts | 277° |
| 2026-04-17 22:38 | 52.97890 | 2.67492 | 34147 ft | 441 kts | 277° |
| 2026-04-17 22:38 | 52.99169 | 2.57588 | 34148 ft | 439 kts | 277° |
| 2026-04-17 22:39 | 53.00420 | 2.47801 | 34150 ft | 441 kts | 277° |
| 2026-04-17 22:39 | 53.02284 | 2.33076 | 34148 ft | 439 kts | 276° |
| 2026-04-17 22:40 | 53.03483 | 2.23523 | 34141 ft | 436 kts | 276° |
| 2026-04-17 22:40 | 53.04710 | 2.13658 | 34131 ft | 437 kts | 276° |
| 2026-04-17 22:41 | 53.05921 | 2.03856 | 34138 ft | 435 kts | 276° |
| 2026-04-17 22:41 | 53.07125 | 1.94033 | 34148 ft | 436 kts | 276° |
| 2026-04-17 22:42 | 53.08323 | 1.84187 | 34135 ft | 436 kts | 276° |
| 2026-04-17 22:42 | 53.09514 | 1.74332 | 34149 ft | 435 kts | 275° |
| 2026-04-17 22:43 | 53.10694 | 1.64491 | 34133 ft | 435 kts | 275° |
| 2026-04-17 22:43 | 53.11875 | 1.54572 | 34126 ft | 436 kts | 275° |
| 2026-04-17 22:44 | 53.13034 | 1.44763 | 34131 ft | 434 kts | 275° |
| 2026-04-17 22:44 | 53.14185 | 1.34945 | 34134 ft | 436 kts | 274° |
| 2026-04-17 22:45 | 53.15353 | 1.24912 | 34120 ft | 432 kts | 274° |
| 2026-04-17 22:45 | 53.16486 | 1.15101 | 34127 ft | 432 kts | 274° |
| 2026-04-17 22:46 | 53.17548 | 1.05830 | 34126 ft | 433 kts | 274° |
| 2026-04-17 22:46 | 53.18665 | 0.96015 | 34117 ft | 432 kts | 274° |
| 2026-04-17 22:47 | 53.19773 | 0.86197 | 34123 ft | 432 kts | 274° |
| 2026-04-17 22:47 | 53.20868 | 0.76418 | 34118 ft | 432 kts | 274° |
| 2026-04-17 22:48 | 53.21965 | 0.66549 | 34111 ft | 430 kts | 274° |
| 2026-04-17 22:48 | 53.23045 | 0.56745 | 34127 ft | 432 kts | 274° |
| 2026-04-17 22:49 | 53.24078 | 0.47305 | 34125 ft | 432 kts | 274° |
| 2026-04-17 22:49 | 53.25143 | 0.37489 | 34116 ft | 430 kts | 273° |
| 2026-04-17 22:50 | 53.26225 | 0.27438 | 34130 ft | 429 kts | 272° |
| 2026-04-17 22:50 | 53.27269 | 0.17652 | 34117 ft | 432 kts | 272° |
| 2026-04-17 22:51 | 53.28307 | 0.07849 | 34084 ft | 429 kts | 272° |
| 2026-04-17 22:51 | 53.29343 | -0.02025 | 34116 ft | 430 kts | 272° |
| 2026-04-17 22:52 | 53.30365 | -0.11852 | 34111 ft | 430 kts | 272° |
| 2026-04-17 22:52 | 53.31381 | -0.21691 | 34097 ft | 430 kts | 272° |
| 2026-04-17 22:53 | 53.32383 | -0.31490 | 34114 ft | 432 kts | 272° |
| 2026-04-17 22:53 | 53.33381 | -0.41320 | 34079 ft | 429 kts | 272° |
| 2026-04-17 22:54 | 53.34373 | -0.51188 | 34099 ft | 429 kts | 272° |
| 2026-04-17 22:54 | 53.35352 | -0.61013 | 34116 ft | 432 kts | 272° |
| 2026-04-17 22:55 | 53.36347 | -0.71063 | 34106 ft | 429 kts | 272° |
| 2026-04-17 22:55 | 53.37319 | -0.80976 | 34101 ft | 429 kts | 272° |
| 2026-04-17 22:56 | 53.38279 | -0.90852 | 34081 ft | 429 kts | 271° |
| 2026-04-17 22:56 | 53.39229 | -1.00726 | 34097 ft | 430 kts | 272° |
| 2026-04-17 22:57 | 53.40170 | -1.10591 | 34094 ft | 431 kts | 272° |
| 2026-04-17 22:57 | 53.41106 | -1.20477 | 34089 ft | 429 kts | 272° |
| 2026-04-17 22:58 | 53.42022 | -1.30272 | 34085 ft | 429 kts | 271° |
| 2026-04-17 22:58 | 53.42947 | -1.40264 | 34085 ft | 433 kts | 272° |
| 2026-04-17 22:59 | 53.43832 | -1.49864 | 34098 ft | 428 kts | 272° |
| 2026-04-17 22:59 | 53.44732 | -1.59765 | 34059 ft | 434 kts | 272° |
| 2026-04-17 23:00 | 53.45640 | -1.69822 | 34029 ft | 430 kts | 271° |
| 2026-04-17 23:00 | 53.46531 | -1.79813 | 34065 ft | 435 kts | 271° |
| 2026-04-17 23:01 | 53.47416 | -1.89811 | 34031 ft | 432 kts | 271° |
| 2026-04-17 23:01 | 53.48307 | -2.00007 | 34094 ft | 437 kts | 271° |
| 2026-04-17 23:02 | 53.49189 | -2.10168 | 33993 ft | 435 kts | 271° |
| 2026-04-17 23:02 | 53.49622 | -2.15210 | 34098 ft | 439 kts | 271° |
| 2026-04-17 23:02 | 53.50054 | -2.20278 | 34111 ft | 440 kts | 271° |
| 2026-04-17 23:03 | 53.50907 | -2.30288 | 34044 ft | 432 kts | 271° |
| 2026-04-17 23:03 | 53.51756 | -2.40415 | 33999 ft | 439 kts | 272° |
| 2026-04-17 23:04 | 53.52166 | -2.45337 | 34128 ft | 441 kts | 271° |
| 2026-04-17 23:04 | 53.52574 | -2.50250 | 34046 ft | 437 kts | 271° |
| 2026-04-17 23:04 | 53.53396 | -2.60228 | 34079 ft | 436 kts | 271° |
| 2026-04-17 23:05 | 53.54237 | -2.70587 | 34098 ft | 442 kts | 271° |
| 2026-04-17 23:05 | 53.55036 | -2.80490 | 34078 ft | 436 kts | 271° |
| 2026-04-17 23:06 | 53.55853 | -2.90736 | 34089 ft | 437 kts | 271° |
| 2026-04-17 23:06 | 53.56632 | -3.00630 | 34119 ft | 440 kts | 271° |
| 2026-04-17 23:07 | 53.57011 | -3.05498 | 34017 ft | 441 kts | 271° |
| 2026-04-17 23:07 | 53.57395 | -3.10413 | 34048 ft | 436 kts | 271° |
| 2026-04-17 23:07 | 53.58175 | -3.20563 | 34081 ft | 443 kts | 271° |
| 2026-04-17 23:08 | 53.58953 | -3.30757 | 34056 ft | 442 kts | 271° |
| 2026-04-17 23:08 | 53.59724 | -3.40995 | 34086 ft | 445 kts | 271° |
| 2026-04-17 23:09 | 53.60489 | -3.51264 | 34041 ft | 443 kts | 271° |
| 2026-04-17 23:09 | 53.61245 | -3.61541 | 34042 ft | 445 kts | 271° |
| 2026-04-17 23:10 | 53.61894 | -3.71793 | 34010 ft | 439 kts | 268° |
| 2026-04-17 23:10 | 53.62292 | -3.82127 | 34063 ft | 445 kts | 268° |
| 2026-04-17 23:11 | 53.62693 | -3.92366 | 34001 ft | 438 kts | 268° |
| 2026-04-17 23:11 | 53.63095 | -4.02686 | 34050 ft | 442 kts | 268° |
| 2026-04-17 23:12 | 53.63491 | -4.12966 | 34046 ft | 446 kts | 268° |
| 2026-04-17 23:12 | 53.63876 | -4.23064 | 34040 ft | 442 kts | 268° |
| 2026-04-17 23:13 | 53.64260 | -4.33384 | 34032 ft | 443 kts | 268° |
| 2026-04-17 23:13 | 53.64637 | -4.43715 | 34021 ft | 443 kts | 268° |
| 2026-04-17 23:14 | 53.65004 | -4.54006 | 34018 ft | 443 kts | 268° |
| 2026-04-17 23:14 | 53.65364 | -4.64365 | 34031 ft | 443 kts | 268° |
| 2026-04-17 23:15 | 53.65719 | -4.74854 | 34047 ft | 444 kts | 268° |
| 2026-04-17 23:15 | 53.66059 | -4.85161 | 33987 ft | 443 kts | 268° |
| 2026-04-17 23:16 | 53.66397 | -4.95536 | 34023 ft | 445 kts | 268° |
| 2026-04-17 23:16 | 53.66725 | -5.05872 | 34014 ft | 444 kts | 268° |
| 2026-04-17 23:17 | 53.67045 | -5.16213 | 33986 ft | 443 kts | 268° |
| 2026-04-17 23:17 | 53.67348 | -5.26616 | 33983 ft | 446 kts | 268° |
| 2026-04-17 23:18 | 53.67644 | -5.37022 | 34006 ft | 445 kts | 268° |
| 2026-04-17 23:18 | 53.67929 | -5.47403 | 34013 ft | 444 kts | 268° |
| 2026-04-17 23:19 | 53.68167 | -5.57716 | 34016 ft | 443 kts | 268° |
| 2026-04-17 23:19 | 53.68367 | -5.68217 | 33960 ft | 447 kts | 267° |
| 2026-04-17 23:20 | 53.68560 | -5.78607 | 33963 ft | 443 kts | 267° |
| 2026-04-17 23:20 | 53.68744 | -5.89014 | 33951 ft | 446 kts | 267° |
| 2026-04-17 23:21 | 53.68922 | -5.99502 | 33987 ft | 446 kts | 267° |
| 2026-04-17 23:21 | 53.69089 | -6.09901 | 34020 ft | 444 kts | 267° |
| 2026-04-17 23:22 | 53.69248 | -6.20292 | 34021 ft | 446 kts | 267° |
| 2026-04-17 23:22 | 53.69397 | -6.30661 | 33983 ft | 448 kts | 268° |
| 2026-04-17 23:23 | 53.69540 | -6.41201 | 33993 ft | 445 kts | 267° |
| 2026-04-17 23:23 | 53.69671 | -6.51629 | 33994 ft | 449 kts | 267° |
| 2026-04-17 23:24 | 53.69795 | -6.62057 | 34011 ft | 447 kts | 267° |
| 2026-04-17 23:24 | 53.69910 | -6.72616 | 33976 ft | 449 kts | 267° |
| 2026-04-17 23:25 | 53.70016 | -6.83232 | 33981 ft | 450 kts | 267° |
| 2026-04-17 23:25 | 53.70112 | -6.93715 | 33998 ft | 450 kts | 267° |
| 2026-04-17 23:26 | 53.70200 | -7.04205 | 33999 ft | 447 kts | 267° |
| 2026-04-17 23:26 | 53.70277 | -7.14714 | 33974 ft | 451 kts | 267° |
| 2026-04-17 23:27 | 53.70346 | -7.25248 | 33966 ft | 450 kts | 267° |
| 2026-04-17 23:27 | 53.70406 | -7.35739 | 33991 ft | 447 kts | 267° |
| 2026-04-17 23:28 | 53.70455 | -7.46193 | 33969 ft | 451 kts | 267° |
| 2026-04-17 23:28 | 53.70496 | -7.56734 | 33972 ft | 451 kts | 268° |
| 2026-04-17 23:29 | 53.70529 | -7.67408 | 33974 ft | 448 kts | 266° |
| 2026-04-17 23:29 | 53.70551 | -7.77905 | 33982 ft | 452 kts | 267° |
| 2026-04-17 23:30 | 53.70565 | -7.88460 | 34006 ft | 448 kts | 266° |
| 2026-04-17 23:30 | 53.70568 | -7.98999 | 33988 ft | 453 kts | 267° |
| 2026-04-17 23:31 | 53.70563 | -8.09621 | 34006 ft | 453 kts | 267° |
| 2026-04-17 23:31 | 53.70549 | -8.20157 | 33992 ft | 452 kts | 267° |
| 2026-04-17 23:32 | 53.70525 | -8.30745 | 33975 ft | 454 kts | 267° |
| 2026-04-17 23:32 | 53.70492 | -8.41306 | 34000 ft | 451 kts | 267° |
| 2026-04-17 23:33 | 53.70450 | -8.51843 | 33982 ft | 452 kts | 267° |
| 2026-04-17 23:33 | 53.70398 | -8.62406 | 33979 ft | 453 kts | 267° |
| 2026-04-17 23:34 | 53.70337 | -8.72982 | 33978 ft | 453 kts | 266° |
| 2026-04-17 23:34 | 53.70267 | -8.83548 | 33979 ft | 452 kts | 266° |
| 2026-04-17 23:35 | 53.70186 | -8.94192 | 33978 ft | 455 kts | 266° |
| 2026-04-17 23:35 | 53.70098 | -9.04763 | 33975 ft | 453 kts | 266° |
| 2026-04-17 23:36 | 53.69999 | -9.15322 | 33981 ft | 454 kts | 266° |
| 2026-04-17 23:36 | 53.69891 | -9.25932 | 33967 ft | 454 kts | 266° |
| 2026-04-17 23:37 | 53.69774 | -9.36514 | 33989 ft | 452 kts | 266° |
| 2026-04-17 23:37 | 53.69647 | -9.47163 | 33966 ft | 456 kts | 267° |
| 2026-04-17 23:38 | 53.69511 | -9.57759 | 33986 ft | 453 kts | 267° |
| 2026-04-17 23:38 | 53.69365 | -9.68386 | 33985 ft | 455 kts | 266° |
| 2026-04-17 23:39 | 53.69209 | -9.79079 | 33990 ft | 454 kts | 266° |
| 2026-04-17 23:39 | 53.69045 | -9.89663 | 33989 ft | 455 kts | 266° |
| 2026-04-17 23:40 | 53.68870 | -10.00335 | 33973 ft | 457 kts | 266° |
| 2026-04-17 23:40 | 53.68686 | -10.10972 | 33984 ft | 456 kts | 266° |
| 2026-04-17 23:41 | 53.68493 | -10.21637 | 33975 ft | 458 kts | 266° |
| 2026-04-17 23:41 | 53.68290 | -10.32309 | 33985 ft | 456 kts | 266° |
| 2026-04-17 23:42 | 53.68076 | -10.42996 | 33984 ft | 457 kts | 266° |
| 2026-04-17 23:42 | 53.67855 | -10.53638 | 33959 ft | 458 kts | 266° |
| 2026-04-17 23:43 | 53.67623 | -10.64319 | 33981 ft | 458 kts | 266° |
| 2026-04-17 23:43 | 53.67382 | -10.74973 | 33973 ft | 457 kts | 266° |
| 2026-04-17 23:44 | 53.67130 | -10.85718 | 33988 ft | 457 kts | 266° |
| 2026-04-17 23:44 | 53.66871 | -10.96331 | 34001 ft | 458 kts | 266° |
| 2026-04-17 23:45 | 53.66460 | -11.12423 | 33994 ft | 458 kts | 266° |
| 2026-04-17 23:46 | 53.66175 | -11.23118 | 34000 ft | 460 kts | 266° |
| 2026-04-17 23:46 | 53.65882 | -11.33777 | 33979 ft | 457 kts | 266° |
| 2026-04-17 23:47 | 53.65577 | -11.44499 | 33995 ft | 459 kts | 266° |
| 2026-04-17 23:47 | 53.65264 | -11.55178 | 34011 ft | 459 kts | 266° |
| 2026-04-17 23:48 | 53.64941 | -11.65860 | 33986 ft | 462 kts | 266° |
| 2026-04-17 23:48 | 53.64606 | -11.76624 | 33995 ft | 458 kts | 266° |
| 2026-04-17 23:49 | 53.64265 | -11.87275 | 33992 ft | 461 kts | 266° |
| 2026-04-17 23:49 | 53.63911 | -11.98039 | 34020 ft | 458 kts | 266° |
| 2026-04-17 23:50 | 53.63550 | -12.08711 | 34010 ft | 462 kts | 266° |
| 2026-04-17 23:50 | 53.63179 | -12.19415 | 33999 ft | 460 kts | 266° |
| 2026-04-17 23:51 | 53.62799 | -12.30092 | 34015 ft | 458 kts | 266° |
| 2026-04-17 23:51 | 53.62409 | -12.40770 | 34013 ft | 460 kts | 266° |
| 2026-04-17 23:52 | 53.62009 | -12.51471 | 34008 ft | 460 kts | 266° |
| 2026-04-17 23:52 | 53.61602 | -12.62095 | 34010 ft | 458 kts | 266° |
| 2026-04-17 23:53 | 53.61180 | -12.72854 | 34014 ft | 461 kts | 266° |
| 2026-04-17 23:53 | 53.60753 | -12.83533 | 34054 ft | 456 kts | 266° |
| 2026-04-17 23:54 | 53.60316 | -12.94195 | 34028 ft | 460 kts | 266° |
| 2026-04-17 23:54 | 53.59869 | -13.04864 | 34034 ft | 459 kts | 266° |
| 2026-04-17 23:55 | 53.59409 | -13.15606 | 34045 ft | 458 kts | 266° |
| 2026-04-17 23:55 | 53.58944 | -13.26257 | 34042 ft | 459 kts | 266° |
| 2026-04-17 23:56 | 53.58469 | -13.36905 | 34041 ft | 460 kts | 266° |
| 2026-04-17 23:56 | 53.57983 | -13.47598 | 34047 ft | 458 kts | 266° |
| 2026-04-17 23:57 | 53.57491 | -13.58196 | 34047 ft | 460 kts | 266° |
| 2026-04-17 23:57 | 53.56988 | -13.68847 | 34045 ft | 459 kts | 265° |
| 2026-04-17 23:58 | 53.56473 | -13.79537 | 34060 ft | 459 kts | 265° |
| 2026-04-17 23:58 | 53.55946 | -13.90265 | 34049 ft | 462 kts | 265° |
| 2026-04-17 23:59 | 53.55414 | -14.00902 | 34055 ft | 457 kts | 265° |
| 2026-04-17 23:59 | 53.54872 | -14.11554 | 34072 ft | 460 kts | 266° |
| 2026-04-18 00:00 | 53.54324 | -14.22145 | 34080 ft | 457 kts | 266° |
| 2026-04-18 00:00 | 53.53763 | -14.32784 | 34089 ft | 460 kts | 266° |
| 2026-04-18 00:01 | 53.53195 | -14.43384 | 34094 ft | 455 kts | 266° |
| 2026-04-18 00:01 | 53.52623 | -14.53878 | 34092 ft | 457 kts | 266° |
| 2026-04-18 00:02 | 53.52038 | -14.64448 | 34081 ft | 454 kts | 266° |
| 2026-04-18 00:02 | 53.51443 | -14.75024 | 34057 ft | 456 kts | 265° |
| 2026-04-18 00:03 | 53.50855 | -14.85303 | 34070 ft | 454 kts | 265° |
| 2026-04-18 00:03 | 53.50248 | -14.95772 | 34082 ft | 455 kts | 265° |
| 2026-04-18 00:04 | 53.49884 | -15.06688 | 34219 ft | 459 kts | 274° |
| 2026-04-18 00:04 | 53.50061 | -15.12371 | 34628 ft | 458 kts | 273° |
| 2026-04-18 00:04 | 53.50224 | -15.17937 | 35148 ft | 455 kts | 273° |
| 2026-04-18 00:04 | 53.50369 | -15.23412 | 35629 ft | 452 kts | 272° |
| 2026-04-18 00:05 | 53.50499 | -15.28827 | 35972 ft | 453 kts | 272° |
| 2026-04-18 00:05 | 53.50620 | -15.34345 | 36094 ft | 456 kts | 272° |
| 2026-04-18 00:05 | 53.50733 | -15.39899 | 36087 ft | 455 kts | 272° |
| 2026-04-18 00:06 | 53.50931 | -15.50533 | 36101 ft | 454 kts | 272° |
| 2026-04-18 00:06 | 53.51109 | -15.61026 | 36069 ft | 453 kts | 272° |
| 2026-04-18 00:07 | 53.51275 | -15.71570 | 36102 ft | 453 kts | 272° |
| 2026-04-18 00:07 | 53.51430 | -15.82099 | 36092 ft | 452 kts | 272° |
| 2026-04-18 00:08 | 53.51574 | -15.92621 | 36136 ft | 451 kts | 272° |
| 2026-04-18 00:08 | 53.51708 | -16.03133 | 36084 ft | 454 kts | 271° |
| 2026-04-18 00:09 | 53.51835 | -16.13913 | 36092 ft | 448 kts | 272° |
| 2026-04-18 00:09 | 53.51956 | -16.25018 | 36123 ft | 453 kts | 272° |
| 2026-04-18 00:10 | 53.52065 | -16.35911 | 36104 ft | 451 kts | 272° |
| 2026-04-18 00:10 | 53.52165 | -16.46917 | 36111 ft | 449 kts | 272° |
| 2026-04-18 00:11 | 53.52255 | -16.57931 | 36115 ft | 450 kts | 272° |
| 2026-04-18 00:11 | 53.52334 | -16.68931 | 36111 ft | 449 kts | 271° |
| 2026-04-18 00:12 | 53.52403 | -16.79850 | 36132 ft | 450 kts | 271° |
| 2026-04-18 00:12 | 53.52462 | -16.90771 | 36159 ft | 447 kts | 271° |
| 2026-04-18 00:13 | 53.52511 | -17.01746 | 36131 ft | 450 kts | 271° |
| 2026-04-18 00:13 | 53.52548 | -17.11876 | 36130 ft | 448 kts | 271° |
| 2026-04-18 00:14 | 53.52576 | -17.22282 | 36151 ft | 448 kts | 271° |
| 2026-04-18 00:14 | 53.52596 | -17.32531 | 36134 ft | 447 kts | 271° |
| 2026-04-18 00:15 | 53.52606 | -17.42937 | 36120 ft | 448 kts | 271° |
| 2026-04-18 00:15 | 53.52608 | -17.53329 | 36124 ft | 444 kts | 271° |
| 2026-04-18 00:16 | 53.52600 | -17.63684 | 36128 ft | 446 kts | 271° |
| 2026-04-18 00:16 | 53.52585 | -17.73674 | 36175 ft | 446 kts | 270° |
| 2026-04-18 00:17 | 53.52560 | -17.84050 | 36135 ft | 446 kts | 271° |
| 2026-04-18 00:17 | 53.52526 | -17.94406 | 36167 ft | 446 kts | 270° |
| 2026-04-18 00:18 | 53.52483 | -18.04747 | 36153 ft | 444 kts | 270° |
| 2026-04-18 00:18 | 53.52432 | -18.15076 | 36153 ft | 445 kts | 271° |
| 2026-04-18 00:19 | 53.52371 | -18.25408 | 36172 ft | 445 kts | 270° |
| 2026-04-18 00:19 | 53.52301 | -18.35743 | 36156 ft | 443 kts | 271° |
| 2026-04-18 00:20 | 53.52223 | -18.46080 | 36130 ft | 444 kts | 271° |
| 2026-04-18 00:20 | 53.52136 | -18.56381 | 36166 ft | 444 kts | 271° |
| 2026-04-18 00:21 | 53.52040 | -18.66696 | 36172 ft | 444 kts | 270° |
| 2026-04-18 00:21 | 53.51935 | -18.77033 | 36150 ft | 444 kts | 270° |
| 2026-04-18 00:22 | 53.51820 | -18.87412 | 36164 ft | 445 kts | 270° |
| 2026-04-18 00:22 | 53.51700 | -18.97525 | 36152 ft | 443 kts | 270° |
| 2026-04-18 00:23 | 53.51569 | -19.07803 | 36130 ft | 445 kts | 270° |
| 2026-04-18 00:23 | 53.51430 | -19.18048 | 36167 ft | 444 kts | 270° |
| 2026-04-18 00:24 | 53.51286 | -19.27994 | 36160 ft | 443 kts | 270° |
| 2026-04-18 00:24 | 53.51129 | -19.38303 | 36176 ft | 443 kts | 270° |
| 2026-04-18 00:25 | 53.50962 | -19.48648 | 36150 ft | 444 kts | 270° |
| 2026-04-18 00:25 | 53.50787 | -19.58936 | 36168 ft | 444 kts | 270° |
| 2026-04-18 00:26 | 53.50603 | -19.69197 | 36162 ft | 443 kts | 269° |
| 2026-04-18 00:26 | 53.50409 | -19.79549 | 36172 ft | 444 kts | 269° |
| 2026-04-18 00:27 | 53.50206 | -19.89940 | 36158 ft | 443 kts | 269° |
| 2026-04-18 00:27 | 53.50143 | -20.00543 | 36117 ft | 441 kts | 276° |
| 2026-04-18 00:28 | 53.51355 | -20.10604 | 36137 ft | 442 kts | 285° |
| 2026-04-18 00:28 | 53.52863 | -20.20531 | 36144 ft | 441 kts | 284° |
| 2026-04-18 00:29 | 53.54332 | -20.30535 | 36135 ft | 440 kts | 284° |
| 2026-04-18 00:29 | 53.55766 | -20.40514 | 36166 ft | 441 kts | 284° |
| 2026-04-18 00:30 | 53.57177 | -20.50476 | 36157 ft | 441 kts | 284° |
| 2026-04-18 00:30 | 53.58546 | -20.60234 | 36186 ft | 441 kts | 284° |
| 2026-04-18 00:31 | 53.59909 | -20.70044 | 36173 ft | 440 kts | 283° |
| 2026-04-18 00:31 | 53.61307 | -20.80170 | 36186 ft | 442 kts | 283° |
| 2026-04-18 00:32 | 53.62698 | -20.90332 | 36192 ft | 443 kts | 283° |
| 2026-04-18 00:32 | 53.64094 | -21.00599 | 36167 ft | 444 kts | 283° |
| 2026-04-18 00:33 | 53.65487 | -21.10919 | 36155 ft | 443 kts | 283° |
| 2026-04-18 00:33 | 53.66874 | -21.21263 | 36160 ft | 443 kts | 283° |
| 2026-04-18 00:34 | 53.68209 | -21.31298 | 36139 ft | 442 kts | 283° |
| 2026-04-18 00:34 | 53.69523 | -21.41231 | 36151 ft | 443 kts | 283° |
| 2026-04-18 00:35 | 53.70845 | -21.51301 | 36172 ft | 442 kts | 283° |
| 2026-04-18 00:35 | 53.72159 | -21.61385 | 36160 ft | 443 kts | 283° |
| 2026-04-18 00:36 | 53.73473 | -21.71541 | 36159 ft | 443 kts | 282° |
| 2026-04-18 00:36 | 53.74771 | -21.81638 | 36174 ft | 442 kts | 283° |
| 2026-04-18 00:37 | 53.76034 | -21.91539 | 36165 ft | 441 kts | 282° |
| 2026-04-18 00:37 | 53.77325 | -22.01727 | 36168 ft | 442 kts | 283° |
| 2026-04-18 00:38 | 53.78590 | -22.11785 | 36169 ft | 441 kts | 282° |
| 2026-04-18 00:38 | 53.79854 | -22.21914 | 36172 ft | 440 kts | 283° |
| 2026-04-18 00:39 | 53.81105 | -22.32012 | 36153 ft | 439 kts | 283° |
| 2026-04-18 00:39 | 53.82342 | -22.42061 | 36175 ft | 441 kts | 283° |
| 2026-04-18 00:40 | 53.83578 | -22.52188 | 36149 ft | 439 kts | 283° |
| 2026-04-18 00:40 | 53.84783 | -22.62129 | 36174 ft | 440 kts | 283° |
| 2026-04-18 00:41 | 53.85973 | -22.72022 | 36165 ft | 439 kts | 282° |
| 2026-04-18 00:41 | 53.87181 | -22.82140 | 36173 ft | 439 kts | 282° |
| 2026-04-18 00:42 | 53.88375 | -22.92213 | 36213 ft | 439 kts | 282° |
| 2026-04-18 00:42 | 53.89558 | -23.02278 | 36159 ft | 437 kts | 282° |
| 2026-04-18 00:43 | 53.90734 | -23.12355 | 36157 ft | 438 kts | 282° |
| 2026-04-18 00:43 | 53.91907 | -23.22485 | 36184 ft | 437 kts | 282° |
| 2026-04-18 00:44 | 53.93061 | -23.32527 | 36129 ft | 437 kts | 282° |
| 2026-04-18 00:44 | 53.94208 | -23.42590 | 36164 ft | 436 kts | 282° |
| 2026-04-18 00:45 | 53.95331 | -23.52518 | 36174 ft | 436 kts | 282° |
| 2026-04-18 00:45 | 53.96449 | -23.62485 | 36151 ft | 434 kts | 282° |
| 2026-04-18 00:46 | 53.97560 | -23.72461 | 36167 ft | 434 kts | 281° |
| 2026-04-18 00:46 | 53.98663 | -23.82446 | 36186 ft | 434 kts | 281° |
| 2026-04-18 00:47 | 53.99764 | -23.92505 | 36122 ft | 432 kts | 281° |
| 2026-04-18 00:47 | 54.00852 | -24.02515 | 36171 ft | 433 kts | 282° |
| 2026-04-18 00:48 | 54.01927 | -24.12491 | 36149 ft | 432 kts | 282° |
| 2026-04-18 00:48 | 54.03008 | -24.22606 | 36147 ft | 433 kts | 282° |
| 2026-04-18 00:49 | 54.04662 | -24.38245 | 36099 ft | 432 kts | 281° |
| 2026-04-18 00:49 | 54.05720 | -24.48363 | 36143 ft | 432 kts | 282° |
| 2026-04-18 00:50 | 54.06752 | -24.58311 | 36173 ft | 433 kts | 281° |
| 2026-04-18 00:50 | 54.07805 | -24.68554 | 36161 ft | 430 kts | 281° |
| 2026-04-18 00:51 | 54.08862 | -24.78926 | 36154 ft | 431 kts | 281° |
| 2026-04-18 00:51 | 54.09919 | -24.89390 | 36169 ft | 430 kts | 281° |
| 2026-04-18 00:52 | 54.10968 | -24.99870 | 36110 ft | 431 kts | 281° |
| 2026-04-18 00:52 | 54.12001 | -25.10281 | 36178 ft | 432 kts | 281° |
| 2026-04-18 00:53 | 54.12988 | -25.20332 | 36183 ft | 429 kts | 281° |
| 2026-04-18 00:53 | 54.13961 | -25.30316 | 36129 ft | 429 kts | 281° |
| 2026-04-18 00:54 | 54.14929 | -25.40344 | 36162 ft | 429 kts | 281° |
| 2026-04-18 00:54 | 54.15878 | -25.50267 | 36186 ft | 428 kts | 281° |
| 2026-04-18 00:55 | 54.16829 | -25.60298 | 36173 ft | 426 kts | 281° |
| 2026-04-18 00:55 | 54.17762 | -25.70243 | 36126 ft | 425 kts | 280° |
| 2026-04-18 00:56 | 54.18691 | -25.80211 | 36122 ft | 428 kts | 280° |
| 2026-04-18 00:56 | 54.19611 | -25.90199 | 36137 ft | 427 kts | 280° |
| 2026-04-18 00:57 | 54.20526 | -26.00227 | 36174 ft | 427 kts | 280° |
| 2026-04-18 00:57 | 54.21424 | -26.10157 | 36156 ft | 423 kts | 280° |
| 2026-04-18 00:58 | 54.22318 | -26.20127 | 36136 ft | 425 kts | 280° |
| 2026-04-18 00:58 | 54.23196 | -26.30033 | 36139 ft | 425 kts | 280° |
| 2026-04-18 00:59 | 54.24077 | -26.40055 | 36116 ft | 425 kts | 280° |
| 2026-04-18 00:59 | 54.24941 | -26.49982 | 36140 ft | 425 kts | 280° |
| 2026-04-18 01:00 | 54.25816 | -26.60147 | 36128 ft | 424 kts | 280° |
| 2026-04-18 01:00 | 54.26696 | -26.70470 | 36123 ft | 426 kts | 279° |
| 2026-04-18 01:01 | 54.27542 | -26.80496 | 36128 ft | 423 kts | 279° |
| 2026-04-18 01:01 | 54.28411 | -26.90904 | 36121 ft | 424 kts | 279° |
| 2026-04-18 01:02 | 54.29263 | -27.01224 | 36140 ft | 425 kts | 279° |
| 2026-04-18 01:02 | 54.30101 | -27.11473 | 36116 ft | 425 kts | 279° |
| 2026-04-18 01:03 | 54.30897 | -27.21327 | 36142 ft | 422 kts | 279° |
| 2026-04-18 01:03 | 54.31679 | -27.31100 | 36114 ft | 422 kts | 279° |
| 2026-04-18 01:04 | 54.32439 | -27.40694 | 36114 ft | 422 kts | 279° |
| 2026-04-18 01:04 | 54.33199 | -27.50405 | 36143 ft | 422 kts | 279° |
| 2026-04-18 01:05 | 54.33966 | -27.60292 | 36119 ft | 419 kts | 279° |
| 2026-04-18 01:05 | 54.34728 | -27.70233 | 36140 ft | 420 kts | 278° |
| 2026-04-18 01:06 | 54.35474 | -27.80072 | 36153 ft | 419 kts | 278° |
| 2026-04-18 01:06 | 54.36212 | -27.89917 | 36129 ft | 418 kts | 278° |
| 2026-04-18 01:07 | 54.36941 | -27.99753 | 36103 ft | 419 kts | 278° |
| 2026-04-18 01:07 | 54.37670 | -28.09703 | 36106 ft | 415 kts | 278° |
| 2026-04-18 01:08 | 54.38372 | -28.19384 | 36092 ft | 417 kts | 278° |
| 2026-04-18 01:08 | 54.39071 | -28.29149 | 36101 ft | 417 kts | 278° |
| 2026-04-18 01:09 | 54.39767 | -28.38984 | 36127 ft | 417 kts | 278° |
| 2026-04-18 01:09 | 54.40456 | -28.48838 | 36095 ft | 415 kts | 278° |
| 2026-04-18 01:10 | 54.41148 | -28.58851 | 36122 ft | 417 kts | 278° |
| 2026-04-18 01:10 | 54.41794 | -28.68312 | 36106 ft | 415 kts | 277° |
| 2026-04-18 01:11 | 54.42440 | -28.77885 | 36140 ft | 415 kts | 277° |
| 2026-04-18 01:11 | 54.43092 | -28.87669 | 36103 ft | 414 kts | 277° |
| 2026-04-18 01:12 | 54.43735 | -28.97435 | 36111 ft | 414 kts | 277° |
| 2026-04-18 01:12 | 54.44371 | -29.07218 | 36128 ft | 414 kts | 278° |
| 2026-04-18 01:13 | 54.44997 | -29.16972 | 36114 ft | 413 kts | 277° |
| 2026-04-18 01:13 | 54.45616 | -29.26754 | 36106 ft | 412 kts | 278° |
| 2026-04-18 01:14 | 54.46226 | -29.36496 | 36091 ft | 412 kts | 277° |
| 2026-04-18 01:14 | 54.46826 | -29.46223 | 36136 ft | 414 kts | 278° |
| 2026-04-18 01:15 | 54.47419 | -29.55957 | 36117 ft | 412 kts | 277° |
| 2026-04-18 01:15 | 54.48006 | -29.65743 | 36079 ft | 412 kts | 277° |
| 2026-04-18 01:16 | 54.48582 | -29.75469 | 36112 ft | 410 kts | 276° |
| 2026-04-18 01:16 | 54.49149 | -29.85172 | 36099 ft | 413 kts | 277° |
| 2026-04-18 01:17 | 54.49710 | -29.94911 | 36098 ft | 406 kts | 276° |
| 2026-04-18 01:17 | 54.50167 | -30.04587 | 36135 ft | 411 kts | 275° |
| 2026-04-18 01:18 | 54.50572 | -30.14301 | 36099 ft | 411 kts | 275° |
| 2026-04-18 01:18 | 54.50965 | -30.24049 | 36095 ft | 409 kts | 275° |
| 2026-04-18 01:19 | 54.51347 | -30.33780 | 36093 ft | 409 kts | 275° |
| 2026-04-18 01:19 | 54.51718 | -30.43488 | 36119 ft | 411 kts | 275° |
| 2026-04-18 01:20 | 54.52077 | -30.53064 | 36096 ft | 410 kts | 275° |
| 2026-04-18 01:20 | 54.52428 | -30.62672 | 36096 ft | 409 kts | 275° |
| 2026-04-18 01:21 | 54.52775 | -30.72360 | 36099 ft | 411 kts | 274° |
| 2026-04-18 01:21 | 54.53116 | -30.82129 | 36127 ft | 410 kts | 274° |
| 2026-04-18 01:22 | 54.53447 | -30.91815 | 36029 ft | 408 kts | 274° |
| 2026-04-18 01:22 | 54.53772 | -31.01575 | 36065 ft | 411 kts | 274° |
| 2026-04-18 01:23 | 54.54087 | -31.11273 | 36118 ft | 409 kts | 274° |
| 2026-04-18 01:23 | 54.54396 | -31.21004 | 36043 ft | 408 kts | 274° |
| 2026-04-18 01:24 | 54.54697 | -31.30779 | 36085 ft | 409 kts | 274° |
| 2026-04-18 01:24 | 54.54989 | -31.40456 | 36080 ft | 408 kts | 273° |
| 2026-04-18 01:25 | 54.55274 | -31.50185 | 36056 ft | 407 kts | 273° |
| 2026-04-18 01:25 | 54.55550 | -31.59873 | 36077 ft | 409 kts | 273° |
| 2026-04-18 01:26 | 54.55817 | -31.69552 | 36058 ft | 407 kts | 272° |
| 2026-04-18 01:26 | 54.56078 | -31.79225 | 36059 ft | 407 kts | 272° |
| 2026-04-18 01:27 | 54.56332 | -31.88966 | 36090 ft | 407 kts | 272° |
| 2026-04-18 01:27 | 54.56576 | -31.98644 | 36110 ft | 407 kts | 272° |
| 2026-04-18 01:28 | 54.56814 | -32.08371 | 36101 ft | 408 kts | 272° |
| 2026-04-18 01:28 | 54.57043 | -32.18045 | 36041 ft | 407 kts | 272° |
| 2026-04-18 01:29 | 54.57265 | -32.27788 | 36081 ft | 409 kts | 272° |
| 2026-04-18 01:29 | 54.57480 | -32.37495 | 36038 ft | 408 kts | 272° |
| 2026-04-18 01:30 | 54.57686 | -32.47195 | 36018 ft | 406 kts | 272° |
| 2026-04-18 01:30 | 54.57884 | -32.56875 | 36044 ft | 408 kts | 272° |
| 2026-04-18 01:31 | 54.58075 | -32.66597 | 36066 ft | 407 kts | 271° |
| 2026-04-18 01:31 | 54.58257 | -32.76229 | 36079 ft | 408 kts | 271° |
| 2026-04-18 01:32 | 54.58432 | -32.85979 | 36083 ft | 407 kts | 271° |
| 2026-04-18 01:32 | 54.58599 | -32.95629 | 36040 ft | 406 kts | 271° |
| 2026-04-18 01:33 | 54.58758 | -33.05313 | 36081 ft | 408 kts | 271° |
| 2026-04-18 01:33 | 54.58910 | -33.15036 | 36056 ft | 407 kts | 271° |
| 2026-04-18 01:34 | 54.59055 | -33.24748 | 36025 ft | 408 kts | 271° |
| 2026-04-18 01:34 | 54.59190 | -33.34400 | 36027 ft | 407 kts | 271° |
| 2026-04-18 01:35 | 54.59319 | -33.44122 | 36019 ft | 407 kts | 270° |
| 2026-04-18 01:35 | 54.59440 | -33.53857 | 36002 ft | 406 kts | 271° |
| 2026-04-18 01:36 | 54.59553 | -33.63543 | 36056 ft | 408 kts | 271° |
| 2026-04-18 01:36 | 54.59658 | -33.73197 | 36044 ft | 407 kts | 270° |
| 2026-04-18 01:37 | 54.59755 | -33.82890 | 36033 ft | 406 kts | 270° |
| 2026-04-18 01:37 | 54.59845 | -33.92592 | 36023 ft | 406 kts | 270° |
| 2026-04-18 01:38 | 54.59927 | -34.02275 | 36013 ft | 406 kts | 270° |
| 2026-04-18 01:38 | 54.60001 | -34.12006 | 36050 ft | 407 kts | 270° |
| 2026-04-18 01:39 | 54.60067 | -34.21636 | 36025 ft | 407 kts | 270° |
| 2026-04-18 01:39 | 54.60126 | -34.31385 | 36043 ft | 405 kts | 270° |
| 2026-04-18 01:40 | 54.60177 | -34.41037 | 36018 ft | 407 kts | 269° |
| 2026-04-18 01:40 | 54.60220 | -34.50741 | 36018 ft | 406 kts | 270° |
| 2026-04-18 01:41 | 54.60256 | -34.60340 | 35982 ft | 404 kts | 270° |
| 2026-04-18 01:41 | 54.60283 | -34.70008 | 36006 ft | 408 kts | 269° |
| 2026-04-18 01:42 | 54.60304 | -34.79754 | 36003 ft | 405 kts | 269° |
| 2026-04-18 01:42 | 54.60316 | -34.89428 | 36028 ft | 406 kts | 269° |
| 2026-04-18 01:43 | 54.60321 | -34.99055 | 36021 ft | 405 kts | 269° |
| 2026-04-18 01:43 | 54.60317 | -35.08743 | 36012 ft | 406 kts | 269° |
| 2026-04-18 01:44 | 54.60307 | -35.18432 | 36003 ft | 406 kts | 268° |
| 2026-04-18 01:44 | 54.60288 | -35.28103 | 35993 ft | 404 kts | 269° |
| 2026-04-18 01:45 | 54.60262 | -35.37701 | 35937 ft | 406 kts | 268° |
| 2026-04-18 01:45 | 54.60228 | -35.47270 | 35986 ft | 407 kts | 268° |
| 2026-04-18 01:46 | 54.60187 | -35.56979 | 35986 ft | 405 kts | 268° |
| 2026-04-18 01:46 | 54.60140 | -35.66102 | 36008 ft | 405 kts | 268° |
| 2026-04-18 01:47 | 54.60084 | -35.75788 | 35973 ft | 404 kts | 267° |
| 2026-04-18 01:47 | 54.60020 | -35.85474 | 35964 ft | 405 kts | 268° |
| 2026-04-18 01:48 | 54.59946 | -35.95328 | 35967 ft | 404 kts | 267° |
| 2026-04-18 01:48 | 54.59864 | -36.05260 | 36012 ft | 406 kts | 268° |
| 2026-04-18 01:49 | 54.59773 | -36.15257 | 36037 ft | 402 kts | 267° |
| 2026-04-18 01:49 | 54.59674 | -36.25206 | 35981 ft | 405 kts | 268° |
| 2026-04-18 01:50 | 54.59569 | -36.35086 | 35929 ft | 404 kts | 267° |
| 2026-04-18 01:50 | 54.59455 | -36.44965 | 35973 ft | 403 kts | 267° |
| 2026-04-18 01:51 | 54.59335 | -36.54657 | 35959 ft | 404 kts | 267° |
| 2026-04-18 01:51 | 54.59209 | -36.64232 | 35984 ft | 404 kts | 267° |
| 2026-04-18 01:52 | 54.59075 | -36.73850 | 35965 ft | 403 kts | 266° |
| 2026-04-18 01:52 | 54.58933 | -36.83511 | 35937 ft | 402 kts | 266° |
| 2026-04-18 01:53 | 54.58783 | -36.93179 | 35940 ft | 402 kts | 266° |
| 2026-04-18 01:54 | 54.58544 | -37.07598 | 35918 ft | 402 kts | 266° |
| 2026-04-18 01:54 | 54.58375 | -37.17217 | 35941 ft | 403 kts | 266° |
| 2026-04-18 01:55 | 54.58199 | -37.26874 | 35963 ft | 402 kts | 266° |
| 2026-04-18 01:55 | 54.58015 | -37.36501 | 35950 ft | 402 kts | 266° |
| 2026-04-18 01:56 | 54.57824 | -37.46090 | 35959 ft | 402 kts | 266° |
| 2026-04-18 01:56 | 54.57627 | -37.55615 | 35948 ft | 402 kts | 266° |
| 2026-04-18 01:57 | 54.57421 | -37.65190 | 35959 ft | 403 kts | 265° |
| 2026-04-18 01:57 | 54.57208 | -37.74759 | 35942 ft | 402 kts | 265° |
| 2026-04-18 01:58 | 54.56988 | -37.84289 | 35905 ft | 402 kts | 265° |
| 2026-04-18 01:58 | 54.56756 | -37.94029 | 35946 ft | 404 kts | 265° |
| 2026-04-18 01:59 | 54.56512 | -38.03917 | 35934 ft | 402 kts | 265° |
| 2026-04-18 01:59 | 54.56259 | -38.13853 | 35940 ft | 403 kts | 265° |
| 2026-04-18 02:00 | 54.55996 | -38.23829 | 35910 ft | 402 kts | 265° |
| 2026-04-18 02:00 | 54.55724 | -38.33848 | 35927 ft | 404 kts | 265° |
| 2026-04-18 02:01 | 54.55446 | -38.43807 | 35911 ft | 402 kts | 265° |
| 2026-04-18 02:01 | 54.55169 | -38.53419 | 35908 ft | 402 kts | 265° |
| 2026-04-18 02:02 | 54.54876 | -38.63325 | 35892 ft | 403 kts | 265° |
| 2026-04-18 02:02 | 54.54585 | -38.72890 | 35907 ft | 401 kts | 264° |
| 2026-04-18 02:03 | 54.54286 | -38.82477 | 35906 ft | 402 kts | 264° |
| 2026-04-18 02:03 | 54.53981 | -38.92008 | 35906 ft | 402 kts | 264° |
| 2026-04-18 02:04 | 54.53675 | -39.01353 | 35896 ft | 401 kts | 263° |
| 2026-04-18 02:04 | 54.53355 | -39.10883 | 35923 ft | 401 kts | 264° |
| 2026-04-18 02:05 | 54.53030 | -39.20341 | 35887 ft | 401 kts | 264° |
| 2026-04-18 02:05 | 54.52696 | -39.29877 | 35845 ft | 403 kts | 264° |
| 2026-04-18 02:06 | 54.52350 | -39.39496 | 35893 ft | 402 kts | 264° |
| 2026-04-18 02:06 | 54.52000 | -39.49028 | 35880 ft | 404 kts | 264° |
| 2026-04-18 02:07 | 54.51647 | -39.58441 | 35870 ft | 400 kts | 264° |
| 2026-04-18 02:07 | 54.51304 | -39.67384 | 35882 ft | 402 kts | 263° |
| 2026-04-18 02:08 | 54.50932 | -39.76928 | 35873 ft | 402 kts | 263° |
| 2026-04-18 02:08 | 54.50552 | -39.86461 | 35824 ft | 401 kts | 263° |
| 2026-04-18 02:09 | 54.50158 | -39.95871 | 35863 ft | 403 kts | 261° |
| 2026-04-18 02:09 | 54.49111 | -40.04770 | 35826 ft | 398 kts | 255° |
| 2026-04-18 02:10 | 54.47764 | -40.14207 | 35858 ft | 400 kts | 255° |
| 2026-04-18 02:10 | 54.46390 | -40.23548 | 35886 ft | 399 kts | 254° |
| 2026-04-18 02:11 | 54.44971 | -40.32975 | 35822 ft | 397 kts | 255° |
| 2026-04-18 02:11 | 54.43597 | -40.41972 | 35799 ft | 399 kts | 254° |
| 2026-04-18 02:12 | 54.42229 | -40.50845 | 35850 ft | 399 kts | 254° |
| 2026-04-18 02:12 | 54.40771 | -40.60237 | 35851 ft | 397 kts | 253° |
| 2026-04-18 02:13 | 54.39319 | -40.69519 | 35840 ft | 398 kts | 253° |
| 2026-04-18 02:13 | 54.37858 | -40.78811 | 35841 ft | 395 kts | 253° |
| 2026-04-18 02:14 | 54.36388 | -40.88101 | 35798 ft | 398 kts | 253° |
| 2026-04-18 02:14 | 54.34916 | -40.97360 | 35791 ft | 398 kts | 253° |
| 2026-04-18 02:15 | 54.33422 | -41.06699 | 35822 ft | 398 kts | 253° |
| 2026-04-18 02:15 | 54.31941 | -41.15903 | 35790 ft | 396 kts | 253° |
| 2026-04-18 02:16 | 54.30457 | -41.25074 | 35737 ft | 400 kts | 253° |
| 2026-04-18 02:16 | 54.28965 | -41.34248 | 35824 ft | 402 kts | 253° |
| 2026-04-18 02:16 | 54.28224 | -41.38792 | 35722 ft | 398 kts | 253° |
| 2026-04-18 02:17 | 54.27477 | -41.43357 | 35781 ft | 398 kts | 253° |
| 2026-04-18 02:17 | 54.25950 | -41.52649 | 35762 ft | 399 kts | 253° |
| 2026-04-18 02:18 | 54.24460 | -41.61660 | 35790 ft | 399 kts | 253° |
| 2026-04-18 02:18 | 54.22953 | -41.70732 | 35831 ft | 398 kts | 252° |
| 2026-04-18 02:19 | 54.21405 | -41.80001 | 35776 ft | 398 kts | 252° |
| 2026-04-18 02:19 | 54.19840 | -41.89326 | 35741 ft | 400 kts | 252° |
| 2026-04-18 02:20 | 54.18280 | -41.98566 | 35801 ft | 403 kts | 252° |
| 2026-04-18 02:20 | 54.16736 | -42.07669 | 35767 ft | 400 kts | 252° |
| 2026-04-18 02:21 | 54.15181 | -42.16785 | 35756 ft | 398 kts | 252° |
| 2026-04-18 02:21 | 54.13629 | -42.25835 | 35773 ft | 402 kts | 252° |
| 2026-04-18 02:22 | 54.12059 | -42.34947 | 35678 ft | 399 kts | 252° |
| 2026-04-18 02:22 | 54.11283 | -42.39436 | 35793 ft | 401 kts | 252° |
| 2026-04-18 02:22 | 54.10488 | -42.44016 | 35794 ft | 400 kts | 252° |
| 2026-04-18 02:23 | 54.08905 | -42.53111 | 35701 ft | 402 kts | 252° |
| 2026-04-18 02:23 | 54.08113 | -42.57643 | 35811 ft | 401 kts | 252° |
| 2026-04-18 02:23 | 54.07299 | -42.62285 | 35750 ft | 403 kts | 251° |
| 2026-04-18 02:24 | 54.05662 | -42.71594 | 35749 ft | 401 kts | 251° |
| 2026-04-18 02:24 | 54.04016 | -42.80905 | 35835 ft | 401 kts | 252° |
| 2026-04-18 02:24 | 54.03181 | -42.85612 | 35697 ft | 401 kts | 251° |
| 2026-04-18 02:25 | 54.02345 | -42.90307 | 35758 ft | 401 kts | 251° |
| 2026-04-18 02:25 | 54.00669 | -42.99693 | 35749 ft | 399 kts | 251° |
| 2026-04-18 02:26 | 53.99000 | -43.08983 | 35781 ft | 404 kts | 252° |
| 2026-04-18 02:26 | 53.97317 | -43.18310 | 35746 ft | 401 kts | 251° |
| 2026-04-18 02:27 | 53.95649 | -43.27506 | 35683 ft | 401 kts | 251° |
| 2026-04-18 02:27 | 53.93971 | -43.36709 | 35763 ft | 402 kts | 252° |
| 2026-04-18 02:28 | 53.92323 | -43.45705 | 35687 ft | 402 kts | 251° |
| 2026-04-18 02:28 | 53.90724 | -43.54396 | 35758 ft | 402 kts | 251° |
| 2026-04-18 02:29 | 53.89087 | -43.63244 | 35713 ft | 403 kts | 251° |
| 2026-04-18 02:29 | 53.87407 | -43.72286 | 35753 ft | 402 kts | 251° |
| 2026-04-18 02:30 | 53.85677 | -43.81551 | 35701 ft | 402 kts | 250° |
| 2026-04-18 02:30 | 53.83917 | -43.90928 | 35713 ft | 404 kts | 250° |
| 2026-04-18 02:31 | 53.82220 | -43.99921 | 35812 ft | 406 kts | 251° |
| 2026-04-18 02:31 | 53.81368 | -44.04424 | 35705 ft | 404 kts | 251° |
| 2026-04-18 02:31 | 53.80508 | -44.08955 | 35705 ft | 405 kts | 251° |
| 2026-04-18 02:32 | 53.78792 | -44.17972 | 35690 ft | 404 kts | 251° |
| 2026-04-18 02:32 | 53.77088 | -44.26878 | 35757 ft | 406 kts | 251° |
| 2026-04-18 02:33 | 53.75346 | -44.35941 | 35709 ft | 403 kts | 251° |
| 2026-04-18 02:33 | 53.73601 | -44.44977 | 35690 ft | 404 kts | 251° |
| 2026-04-18 02:34 | 53.71886 | -44.53813 | 35729 ft | 406 kts | 251° |
| 2026-04-18 02:34 | 53.70126 | -44.62840 | 35722 ft | 407 kts | 251° |
| 2026-04-18 02:35 | 53.68355 | -44.71886 | 35723 ft | 407 kts | 250° |
| 2026-04-18 02:35 | 53.66585 | -44.80882 | 35713 ft | 405 kts | 250° |
| 2026-04-18 02:36 | 53.64916 | -44.89325 | 35683 ft | 406 kts | 250° |
| 2026-04-18 02:36 | 53.63195 | -44.97992 | 35693 ft | 410 kts | 250° |
| 2026-04-18 02:37 | 53.61393 | -45.07027 | 35676 ft | 407 kts | 250° |
| 2026-04-18 02:37 | 53.59582 | -45.16065 | 35623 ft | 406 kts | 250° |
| 2026-04-18 02:38 | 53.57829 | -45.24778 | 35678 ft | 409 kts | 250° |
| 2026-04-18 02:38 | 53.56013 | -45.33757 | 35674 ft | 408 kts | 250° |
| 2026-04-18 02:39 | 53.54183 | -45.42770 | 35680 ft | 409 kts | 250° |
| 2026-04-18 02:39 | 53.52365 | -45.51677 | 35654 ft | 408 kts | 250° |
| 2026-04-18 02:40 | 53.50529 | -45.60637 | 35670 ft | 408 kts | 250° |
| 2026-04-18 02:40 | 53.48752 | -45.69270 | 35676 ft | 408 kts | 249° |
| 2026-04-18 02:41 | 53.46911 | -45.78176 | 35741 ft | 408 kts | 249° |
| 2026-04-18 02:41 | 53.45058 | -45.87096 | 35614 ft | 407 kts | 249° |
| 2026-04-18 02:41 | 53.44117 | -45.91610 | 35729 ft | 411 kts | 250° |
| 2026-04-18 02:42 | 53.43205 | -45.95981 | 35592 ft | 410 kts | 250° |
| 2026-04-18 02:42 | 53.41242 | -46.05347 | 35677 ft | 413 kts | 249° |
| 2026-04-18 02:43 | 53.39271 | -46.14710 | 35695 ft | 410 kts | 250° |
| 2026-04-18 02:43 | 53.37395 | -46.23581 | 35679 ft | 410 kts | 250° |
| 2026-04-18 02:44 | 53.35489 | -46.32550 | 35651 ft | 409 kts | 250° |
| 2026-04-18 02:44 | 53.33678 | -46.41038 | 35679 ft | 413 kts | 249° |
| 2026-04-18 02:45 | 53.31759 | -46.49998 | 35660 ft | 410 kts | 250° |
| 2026-04-18 02:45 | 53.29839 | -46.58920 | 35661 ft | 412 kts | 250° |
| 2026-04-18 02:46 | 53.27896 | -46.67908 | 35652 ft | 413 kts | 249° |
| 2026-04-18 02:46 | 53.25953 | -46.76857 | 35695 ft | 414 kts | 249° |
| 2026-04-18 02:47 | 53.24006 | -46.85789 | 35636 ft | 410 kts | 249° |
| 2026-04-18 02:47 | 53.22039 | -46.94773 | 35654 ft | 413 kts | 249° |
| 2026-04-18 02:48 | 53.20071 | -47.03718 | 35663 ft | 411 kts | 249° |
| 2026-04-18 02:48 | 53.18103 | -47.12631 | 35652 ft | 412 kts | 249° |
| 2026-04-18 02:49 | 53.16113 | -47.21598 | 35660 ft | 414 kts | 249° |
| 2026-04-18 02:49 | 53.14120 | -47.30547 | 35697 ft | 415 kts | 249° |
| 2026-04-18 02:50 | 53.12115 | -47.39508 | 35634 ft | 413 kts | 249° |
| 2026-04-18 02:50 | 53.10143 | -47.48281 | 35653 ft | 414 kts | 250° |
| 2026-04-18 02:51 | 53.08123 | -47.57236 | 35662 ft | 415 kts | 249° |
| 2026-04-18 02:51 | 53.06112 | -47.66110 | 35623 ft | 414 kts | 249° |
| 2026-04-18 02:52 | 53.04068 | -47.75092 | 35627 ft | 413 kts | 249° |
| 2026-04-18 02:52 | 53.02042 | -47.83956 | 35646 ft | 415 kts | 249° |
| 2026-04-18 02:53 | 52.99987 | -47.92910 | 35655 ft | 415 kts | 249° |
| 2026-04-18 02:53 | 52.97948 | -48.01759 | 35624 ft | 415 kts | 249° |
| 2026-04-18 02:54 | 52.95890 | -48.10650 | 35633 ft | 413 kts | 249° |
| 2026-04-18 02:54 | 52.93830 | -48.19514 | 35625 ft | 414 kts | 249° |
| 2026-04-18 02:55 | 52.91749 | -48.28431 | 35629 ft | 413 kts | 249° |
| 2026-04-18 02:55 | 52.89691 | -48.37211 | 35608 ft | 413 kts | 250° |
| 2026-04-18 02:56 | 52.87701 | -48.45673 | 35649 ft | 415 kts | 250° |
| 2026-04-18 02:56 | 52.84620 | -48.58699 | 35607 ft | 415 kts | 250° |
| 2026-04-18 02:57 | 52.82533 | -48.67483 | 35635 ft | 414 kts | 249° |
| 2026-04-18 02:57 | 52.80426 | -48.76311 | 35661 ft | 413 kts | 249° |
| 2026-04-18 02:58 | 52.78328 | -48.85067 | 35661 ft | 413 kts | 249° |
| 2026-04-18 02:58 | 52.77361 | -48.89095 | 35555 ft | 413 kts | 249° |
| 2026-04-18 02:58 | 52.76305 | -48.93482 | 35631 ft | 416 kts | 249° |
| 2026-04-18 02:59 | 52.74194 | -49.02220 | 35637 ft | 412 kts | 249° |
| 2026-04-18 02:59 | 52.72067 | -49.10994 | 35646 ft | 414 kts | 249° |
| 2026-04-18 03:00 | 52.69948 | -49.19700 | 35623 ft | 412 kts | 249° |
| 2026-04-18 03:00 | 52.67833 | -49.28355 | 35612 ft | 414 kts | 249° |
| 2026-04-18 03:01 | 52.65716 | -49.36981 | 35635 ft | 414 kts | 249° |
| 2026-04-18 03:01 | 52.63612 | -49.45522 | 35584 ft | 412 kts | 249° |
| 2026-04-18 03:02 | 52.61450 | -49.54264 | 35589 ft | 413 kts | 250° |
| 2026-04-18 03:02 | 52.59281 | -49.63003 | 35628 ft | 413 kts | 249° |
| 2026-04-18 03:03 | 52.57116 | -49.71688 | 35622 ft | 415 kts | 249° |
| 2026-04-18 03:03 | 52.54948 | -49.80351 | 35619 ft | 412 kts | 249° |
| 2026-04-18 03:04 | 52.52772 | -49.89013 | 35626 ft | 416 kts | 249° |
| 2026-04-18 03:04 | 52.50508 | -49.97990 | 35611 ft | 411 kts | 249° |
| 2026-04-18 03:05 | 52.48347 | -50.06846 | 35605 ft | 413 kts | 250° |
| 2026-04-18 03:05 | 52.46220 | -50.15571 | 35598 ft | 412 kts | 249° |
| 2026-04-18 03:06 | 52.44098 | -50.24249 | 35636 ft | 412 kts | 250° |
| 2026-04-18 03:06 | 52.41960 | -50.32962 | 35579 ft | 412 kts | 250° |
| 2026-04-18 03:07 | 52.39792 | -50.41769 | 35575 ft | 414 kts | 250° |
| 2026-04-18 03:07 | 52.37614 | -50.50573 | 35634 ft | 413 kts | 250° |
| 2026-04-18 03:08 | 52.35450 | -50.59294 | 35629 ft | 413 kts | 250° |
| 2026-04-18 03:08 | 52.33280 | -50.67999 | 35700 ft | 413 kts | 249° |
| 2026-04-18 03:09 | 52.31107 | -50.76686 | 35651 ft | 410 kts | 249° |
| 2026-04-18 03:09 | 52.28921 | -50.85389 | 35629 ft | 412 kts | 249° |
| 2026-04-18 03:10 | 52.26742 | -50.94030 | 35654 ft | 409 kts | 250° |
| 2026-04-18 03:10 | 52.24554 | -51.02677 | 35692 ft | 411 kts | 250° |
| 2026-04-18 03:11 | 52.22329 | -51.11430 | 35644 ft | 410 kts | 250° |
| 2026-04-18 03:11 | 52.20073 | -51.20275 | 35620 ft | 414 kts | 249° |
| 2026-04-18 03:12 | 52.17836 | -51.29011 | 35623 ft | 410 kts | 250° |
| 2026-04-18 03:12 | 52.15665 | -51.37455 | 35663 ft | 411 kts | 249° |
| 2026-04-18 03:13 | 52.13455 | -51.46019 | 35663 ft | 413 kts | 250° |
| 2026-04-18 03:13 | 52.11298 | -51.54345 | 35674 ft | 411 kts | 250° |
| 2026-04-18 03:14 | 52.09070 | -51.62913 | 35656 ft | 410 kts | 250° |
| 2026-04-18 03:14 | 52.06898 | -51.71236 | 35647 ft | 408 kts | 249° |
| 2026-04-18 03:15 | 52.04705 | -51.79608 | 35655 ft | 411 kts | 249° |
| 2026-04-18 03:15 | 52.02465 | -51.88134 | 35770 ft | 414 kts | 249° |
| 2026-04-18 03:16 | 52.00237 | -51.96570 | 35667 ft | 407 kts | 249° |
| 2026-04-18 03:16 | 51.97973 | -52.05121 | 35687 ft | 413 kts | 249° |
| 2026-04-18 03:17 | 51.95617 | -52.13981 | 35665 ft | 408 kts | 249° |
| 2026-04-18 03:17 | 51.93243 | -52.22877 | 35714 ft | 412 kts | 250° |
| 2026-04-18 03:18 | 51.90861 | -52.31764 | 35684 ft | 407 kts | 250° |
| 2026-04-18 03:18 | 51.88477 | -52.40629 | 35688 ft | 410 kts | 250° |
| 2026-04-18 03:19 | 51.86132 | -52.49310 | 35690 ft | 408 kts | 249° |
| 2026-04-18 03:19 | 51.83824 | -52.57829 | 35712 ft | 409 kts | 249° |
| 2026-04-18 03:20 | 51.81533 | -52.66247 | 35681 ft | 407 kts | 249° |
| 2026-04-18 03:20 | 51.79171 | -52.74902 | 35710 ft | 408 kts | 249° |
| 2026-04-18 03:21 | 51.76816 | -52.83495 | 35761 ft | 410 kts | 249° |
| 2026-04-18 03:21 | 51.74446 | -52.92108 | 35725 ft | 406 kts | 249° |
| 2026-04-18 03:22 | 51.72155 | -53.00409 | 35709 ft | 407 kts | 249° |
| 2026-04-18 03:22 | 51.69851 | -53.08727 | 35732 ft | 411 kts | 249° |
| 2026-04-18 03:23 | 51.67523 | -53.17096 | 35746 ft | 406 kts | 250° |
| 2026-04-18 03:23 | 51.65216 | -53.25365 | 35751 ft | 408 kts | 249° |
| 2026-04-18 03:24 | 51.62848 | -53.33822 | 35728 ft | 407 kts | 249° |
| 2026-04-18 03:24 | 51.60390 | -53.42568 | 35750 ft | 408 kts | 249° |
| 2026-04-18 03:25 | 51.57966 | -53.51159 | 35747 ft | 409 kts | 249° |
| 2026-04-18 03:25 | 51.55542 | -53.59722 | 35763 ft | 411 kts | 250° |
| 2026-04-18 03:26 | 51.53126 | -53.68224 | 35846 ft | 411 kts | 249° |
| 2026-04-18 03:26 | 51.50648 | -53.76909 | 35772 ft | 408 kts | 248° |
| 2026-04-18 03:27 | 51.48137 | -53.85491 | 35819 ft | 412 kts | 246° |
| 2026-04-18 03:27 | 51.45321 | -53.93919 | 35746 ft | 408 kts | 246° |
| 2026-04-18 03:28 | 51.42481 | -54.02358 | 35790 ft | 410 kts | 246° |
| 2026-04-18 03:28 | 51.39628 | -54.10794 | 35828 ft | 409 kts | 246° |
| 2026-04-18 03:29 | 51.38215 | -54.14960 | 35715 ft | 406 kts | 246° |
| 2026-04-18 03:29 | 51.36789 | -54.19157 | 35835 ft | 412 kts | 246° |
| 2026-04-18 03:29 | 51.33991 | -54.27368 | 35828 ft | 410 kts | 246° |
| 2026-04-18 03:30 | 51.31265 | -54.35342 | 35797 ft | 408 kts | 246° |
| 2026-04-18 03:30 | 51.28540 | -54.43290 | 35826 ft | 410 kts | 246° |
| 2026-04-18 03:31 | 51.25795 | -54.51266 | 35790 ft | 407 kts | 246° |
| 2026-04-18 03:31 | 51.23015 | -54.59318 | 35808 ft | 408 kts | 246° |
| 2026-04-18 03:32 | 51.20332 | -54.67069 | 35863 ft | 411 kts | 245° |
| 2026-04-18 03:32 | 51.17545 | -54.75092 | 35843 ft | 410 kts | 246° |
| 2026-04-18 03:33 | 51.14697 | -54.83264 | 35873 ft | 407 kts | 246° |
| 2026-04-18 03:33 | 51.11908 | -54.91241 | 35827 ft | 407 kts | 246° |
| 2026-04-18 03:34 | 51.09120 | -54.99197 | 35867 ft | 410 kts | 245° |
| 2026-04-18 03:34 | 51.06346 | -55.07077 | 35750 ft | 405 kts | 246° |
| 2026-04-18 03:35 | 51.04975 | -55.10970 | 35883 ft | 410 kts | 245° |
| 2026-04-18 03:35 | 51.03566 | -55.14958 | 35869 ft | 408 kts | 246° |
| 2026-04-18 03:35 | 51.00812 | -55.22738 | 35889 ft | 406 kts | 245° |
| 2026-04-18 03:36 | 50.98050 | -55.30516 | 35820 ft | 407 kts | 246° |
| 2026-04-18 03:36 | 50.95266 | -55.38338 | 35839 ft | 411 kts | 245° |
| 2026-04-18 03:37 | 50.92477 | -55.46141 | 35831 ft | 405 kts | 246° |
| 2026-04-18 03:37 | 50.89691 | -55.53917 | 35792 ft | 407 kts | 246° |
| 2026-04-18 03:38 | 50.86943 | -55.61563 | 35851 ft | 407 kts | 246° |
| 2026-04-18 03:38 | 50.84135 | -55.69353 | 35862 ft | 410 kts | 245° |
| 2026-04-18 03:39 | 50.81316 | -55.77145 | 35857 ft | 406 kts | 246° |
| 2026-04-18 03:39 | 50.78518 | -55.84862 | 35874 ft | 408 kts | 245° |
| 2026-04-18 03:40 | 50.75706 | -55.92594 | 35885 ft | 411 kts | 245° |
| 2026-04-18 03:40 | 50.72950 | -56.00147 | 35828 ft | 407 kts | 245° |
| 2026-04-18 03:41 | 50.70155 | -56.07784 | 35809 ft | 410 kts | 245° |
| 2026-04-18 03:41 | 50.67373 | -56.15362 | 35864 ft | 408 kts | 245° |
| 2026-04-18 03:42 | 50.64570 | -56.22973 | 35845 ft | 406 kts | 246° |
| 2026-04-18 03:42 | 50.61727 | -56.30676 | 35870 ft | 407 kts | 245° |
| 2026-04-18 03:43 | 50.58917 | -56.38263 | 35876 ft | 406 kts | 245° |
| 2026-04-18 03:43 | 50.56078 | -56.45907 | 35791 ft | 406 kts | 245° |
| 2026-04-18 03:44 | 50.53238 | -56.53532 | 35743 ft | 407 kts | 245° |
| 2026-04-18 03:44 | 50.51834 | -56.57290 | 35871 ft | 409 kts | 246° |
| 2026-04-18 03:44 | 50.50389 | -56.61156 | 35823 ft | 407 kts | 245° |
| 2026-04-18 03:45 | 50.47577 | -56.68661 | 35795 ft | 408 kts | 244° |
| 2026-04-18 03:45 | 50.44716 | -56.76276 | 35851 ft | 411 kts | 245° |
| 2026-04-18 03:46 | 50.41856 | -56.83858 | 35825 ft | 405 kts | 244° |
| 2026-04-18 03:46 | 50.39002 | -56.91409 | 35844 ft | 409 kts | 245° |
| 2026-04-18 03:47 | 50.36131 | -56.98978 | 35848 ft | 403 kts | 245° |
| 2026-04-18 03:47 | 50.33247 | -57.06565 | 35774 ft | 407 kts | 245° |
| 2026-04-18 03:48 | 50.30353 | -57.14154 | 35908 ft | 406 kts | 244° |
| 2026-04-18 03:48 | 50.28917 | -57.17910 | 35765 ft | 405 kts | 245° |
| 2026-04-18 03:48 | 50.27477 | -57.21676 | 35827 ft | 410 kts | 245° |
| 2026-04-18 03:49 | 50.24575 | -57.29240 | 35843 ft | 410 kts | 245° |
| 2026-04-18 03:49 | 50.21654 | -57.36828 | 35792 ft | 405 kts | 245° |
| 2026-04-18 03:50 | 50.18749 | -57.44361 | 35866 ft | 409 kts | 244° |
| 2026-04-18 03:50 | 50.15811 | -57.51952 | 35853 ft | 408 kts | 245° |
| 2026-04-18 03:51 | 50.12844 | -57.59601 | 35871 ft | 411 kts | 244° |
| 2026-04-18 03:51 | 50.11347 | -57.63446 | 35749 ft | 407 kts | 244° |
| 2026-04-18 03:51 | 50.09842 | -57.67312 | 36069 ft | 410 kts | 244° |
| 2026-04-18 03:52 | 50.08264 | -57.71358 | 35624 ft | 412 kts | 244° |
| 2026-04-18 03:52 | 50.06712 | -57.75326 | 35884 ft | 408 kts | 244° |
| 2026-04-18 03:52 | 50.03672 | -57.83094 | 35820 ft | 415 kts | 244° |
| 2026-04-18 03:53 | 50.02177 | -57.86901 | 35926 ft | 413 kts | 244° |
| 2026-04-18 03:53 | 50.00597 | -57.90925 | 35856 ft | 417 kts | 244° |
| 2026-04-18 03:53 | 49.97591 | -57.98549 | 35928 ft | 412 kts | 245° |
| 2026-04-18 03:54 | 49.94472 | -58.06444 | 35890 ft | 413 kts | 244° |
| 2026-04-18 03:54 | 49.91436 | -58.14107 | 35996 ft | 412 kts | 244° |
| 2026-04-18 03:55 | 49.89932 | -58.17896 | 35854 ft | 410 kts | 244° |
| 2026-04-18 03:55 | 49.88456 | -58.21603 | 35889 ft | 407 kts | 244° |
| 2026-04-18 03:55 | 49.85450 | -58.29148 | 35922 ft | 411 kts | 244° |
| 2026-04-18 03:56 | 49.82406 | -58.36763 | 35862 ft | 409 kts | 244° |
| 2026-04-18 03:56 | 49.79447 | -58.44144 | 35897 ft | 407 kts | 245° |
| 2026-04-18 03:57 | 49.74817 | -58.55656 | 35880 ft | 406 kts | 244° |
| 2026-04-18 03:57 | 49.73245 | -58.59549 | 36153 ft | 402 kts | 244° |
| 2026-04-18 03:58 | 49.71732 | -58.63296 | 36007 ft | 409 kts | 244° |
| 2026-04-18 03:58 | 49.70190 | -58.67106 | 35699 ft | 404 kts | 243° |
| 2026-04-18 03:58 | 49.68673 | -58.70848 | 36037 ft | 407 kts | 244° |
| 2026-04-18 03:58 | 49.67099 | -58.74733 | 35935 ft | 408 kts | 243° |
| 2026-04-18 03:59 | 49.65537 | -58.78571 | 35907 ft | 400 kts | 243° |
| 2026-04-18 03:59 | 49.62397 | -58.86286 | 35930 ft | 406 kts | 243° |
| 2026-04-18 04:00 | 49.59293 | -58.93882 | 35922 ft | 404 kts | 244° |
| 2026-04-18 04:00 | 49.56177 | -59.01491 | 35932 ft | 404 kts | 243° |
| 2026-04-18 04:01 | 49.53124 | -59.08919 | 35936 ft | 401 kts | 244° |
| 2026-04-18 04:01 | 49.50165 | -59.16106 | 35971 ft | 406 kts | 244° |
| 2026-04-18 04:02 | 49.47206 | -59.23266 | 35947 ft | 402 kts | 244° |
| 2026-04-18 04:02 | 49.44104 | -59.30760 | 35910 ft | 407 kts | 244° |
| 2026-04-18 04:03 | 49.41064 | -59.38077 | 35947 ft | 405 kts | 244° |
| 2026-04-18 04:03 | 49.38011 | -59.45404 | 35881 ft | 402 kts | 244° |
| 2026-04-18 04:04 | 49.34972 | -59.52681 | 35905 ft | 403 kts | 244° |
| 2026-04-18 04:04 | 49.31909 | -59.59999 | 35923 ft | 408 kts | 244° |
| 2026-04-18 04:05 | 49.28704 | -59.67628 | 35981 ft | 406 kts | 243° |
| 2026-04-18 04:05 | 49.25472 | -59.75298 | 35953 ft | 402 kts | 243° |
| 2026-04-18 04:06 | 49.22299 | -59.82816 | 35938 ft | 407 kts | 243° |
| 2026-04-18 04:06 | 49.20687 | -59.86620 | 35781 ft | 405 kts | 243° |
| 2026-04-18 04:06 | 49.19078 | -59.90417 | 36022 ft | 407 kts | 243° |
| 2026-04-18 04:07 | 49.15805 | -59.98124 | 35878 ft | 407 kts | 243° |
| 2026-04-18 04:07 | 49.12555 | -60.05750 | 35880 ft | 406 kts | 243° |
| 2026-04-18 04:08 | 49.09301 | -60.13368 | 35987 ft | 409 kts | 243° |
| 2026-04-18 04:08 | 49.07724 | -60.17049 | 35885 ft | 408 kts | 243° |
| 2026-04-18 04:08 | 49.06158 | -60.20702 | 36043 ft | 407 kts | 243° |
| 2026-04-18 04:09 | 49.03024 | -60.27994 | 35812 ft | 405 kts | 244° |
| 2026-04-18 04:09 | 48.99853 | -60.35360 | 35936 ft | 408 kts | 243° |
| 2026-04-18 04:09 | 48.98218 | -60.39146 | 36064 ft | 410 kts | 243° |
| 2026-04-18 04:10 | 48.96536 | -60.43042 | 35986 ft | 415 kts | 243° |
| 2026-04-18 04:10 | 48.93203 | -60.50725 | 35963 ft | 407 kts | 243° |
| 2026-04-18 04:11 | 48.89909 | -60.58312 | 35973 ft | 410 kts | 243° |
| 2026-04-18 04:11 | 48.86740 | -60.65583 | 35961 ft | 408 kts | 242° |
| 2026-04-18 04:12 | 48.83619 | -60.72724 | 35999 ft | 405 kts | 242° |
| 2026-04-18 04:12 | 48.80493 | -60.79865 | 35998 ft | 408 kts | 242° |
| 2026-04-18 04:13 | 48.77358 | -60.87004 | 35997 ft | 408 kts | 242° |
| 2026-04-18 04:13 | 48.74214 | -60.94143 | 35990 ft | 407 kts | 242° |
| 2026-04-18 04:14 | 48.71650 | -60.99950 | 35990 ft | 404 kts | 242° |
| 2026-04-18 04:14 | 48.68513 | -61.07044 | 35990 ft | 409 kts | 242° |
| 2026-04-18 04:15 | 48.65548 | -61.13727 | 36249 ft | 414 kts | 242° |
| 2026-04-18 04:15 | 48.64105 | -61.16972 | 36819 ft | 410 kts | 241° |
| 2026-04-18 04:15 | 48.62496 | -61.20584 | 37400 ft | 407 kts | 241° |
| 2026-04-18 04:15 | 48.60885 | -61.24200 | 37870 ft | 405 kts | 242° |
| 2026-04-18 04:16 | 48.59295 | -61.27766 | 37927 ft | 408 kts | 241° |
| 2026-04-18 04:16 | 48.57803 | -61.31107 | 38068 ft | 412 kts | 241° |
| 2026-04-18 04:16 | 48.56419 | -61.34200 | 37985 ft | 408 kts | 242° |
| 2026-04-18 04:17 | 48.53314 | -61.41129 | 38051 ft | 411 kts | 242° |
| 2026-04-18 04:17 | 48.51720 | -61.44679 | 37928 ft | 409 kts | 241° |
| 2026-04-18 04:17 | 48.50650 | -61.47057 | 37932 ft | 408 kts | 241° |
| 2026-04-18 04:18 | 48.46924 | -61.55333 | 38049 ft | 413 kts | 242° |
| 2026-04-18 04:18 | 48.43699 | -61.62474 | 38040 ft | 412 kts | 242° |
| 2026-04-18 04:19 | 48.40465 | -61.69612 | 37994 ft | 406 kts | 240° |
| 2026-04-18 04:19 | 48.37244 | -61.76709 | 38057 ft | 412 kts | 241° |
| 2026-04-18 04:19 | 48.35618 | -61.80284 | 37944 ft | 410 kts | 240° |
| 2026-04-18 04:20 | 48.34024 | -61.83782 | 38110 ft | 409 kts | 241° |
| 2026-04-18 04:20 | 48.32378 | -61.87394 | 37978 ft | 413 kts | 240° |
| 2026-04-18 04:20 | 48.30772 | -61.90905 | 38047 ft | 408 kts | 240° |
| 2026-04-18 04:21 | 48.27535 | -61.97982 | 37947 ft | 414 kts | 241° |
| 2026-04-18 04:21 | 48.24268 | -62.05101 | 37951 ft | 411 kts | 241° |
| 2026-04-18 04:21 | 48.22656 | -62.08606 | 38060 ft | 411 kts | 241° |
| 2026-04-18 04:22 | 48.21058 | -62.12077 | 38003 ft | 408 kts | 240° |
| 2026-04-18 04:22 | 48.17812 | -62.19118 | 38050 ft | 412 kts | 241° |
| 2026-04-18 04:22 | 48.16182 | -62.22645 | 37889 ft | 410 kts | 240° |
| 2026-04-18 04:23 | 48.14658 | -62.25938 | 38090 ft | 410 kts | 241° |
| 2026-04-18 04:23 | 48.11470 | -62.32814 | 37978 ft | 408 kts | 240° |
| 2026-04-18 04:24 | 48.08266 | -62.39711 | 38012 ft | 413 kts | 241° |
| 2026-04-18 04:24 | 48.04993 | -62.46735 | 38022 ft | 411 kts | 241° |
| 2026-04-18 04:25 | 48.01732 | -62.53713 | 38016 ft | 408 kts | 241° |
| 2026-04-18 04:25 | 47.98466 | -62.60691 | 38009 ft | 411 kts | 241° |
| 2026-04-18 04:26 | 47.95119 | -62.67819 | 38034 ft | 413 kts | 240° |
| 2026-04-18 04:26 | 47.91795 | -62.74882 | 38031 ft | 413 kts | 240° |
| 2026-04-18 04:27 | 47.88482 | -62.81900 | 38004 ft | 411 kts | 240° |
| 2026-04-18 04:27 | 47.85180 | -62.88878 | 38025 ft | 411 kts | 240° |
| 2026-04-18 04:28 | 47.81903 | -62.95786 | 38040 ft | 411 kts | 240° |
| 2026-04-18 04:28 | 47.78594 | -63.02743 | 38029 ft | 412 kts | 240° |
| 2026-04-18 04:29 | 47.75265 | -63.09728 | 38012 ft | 414 kts | 240° |
| 2026-04-18 04:29 | 47.72551 | -63.15403 | 38037 ft | 412 kts | 240° |
| 2026-04-18 04:30 | 47.68527 | -63.23803 | 38019 ft | 411 kts | 239° |
| 2026-04-18 04:30 | 47.65100 | -63.30936 | 38018 ft | 412 kts | 239° |
| 2026-04-18 04:31 | 47.61774 | -63.37840 | 38031 ft | 412 kts | 239° |
| 2026-04-18 04:31 | 47.58497 | -63.44626 | 38022 ft | 413 kts | 239° |
| 2026-04-18 04:32 | 47.55154 | -63.51531 | 38020 ft | 414 kts | 239° |
| 2026-04-18 04:32 | 47.51821 | -63.58397 | 38029 ft | 412 kts | 239° |
| 2026-04-18 04:33 | 47.48461 | -63.65304 | 38033 ft | 415 kts | 239° |
| 2026-04-18 04:33 | 47.45103 | -63.72187 | 38036 ft | 414 kts | 239° |
| 2026-04-18 04:34 | 47.41734 | -63.79077 | 38039 ft | 413 kts | 238° |
| 2026-04-18 04:34 | 47.38380 | -63.85919 | 38033 ft | 414 kts | 239° |
| 2026-04-18 04:35 | 47.35159 | -63.92476 | 38037 ft | 416 kts | 239° |
| 2026-04-18 04:35 | 47.31774 | -63.99345 | 38029 ft | 414 kts | 238° |
| 2026-04-18 04:36 | 47.28383 | -64.06213 | 38024 ft | 415 kts | 238° |
| 2026-04-18 04:36 | 47.25012 | -64.13021 | 38028 ft | 416 kts | 238° |
| 2026-04-18 04:37 | 47.21596 | -64.19902 | 38019 ft | 414 kts | 238° |
| 2026-04-18 04:37 | 47.18414 | -64.26299 | 38030 ft | 415 kts | 238° |
| 2026-04-18 04:38 | 47.14985 | -64.33177 | 38004 ft | 421 kts | 238° |
| 2026-04-18 04:38 | 47.11553 | -64.40038 | 38000 ft | 417 kts | 238° |
| 2026-04-18 04:39 | 47.08129 | -64.46873 | 38010 ft | 421 kts | 238° |
| 2026-04-18 04:39 | 47.04674 | -64.53748 | 38013 ft | 419 kts | 238° |
| 2026-04-18 04:40 | 47.01218 | -64.60608 | 38003 ft | 419 kts | 238° |
| 2026-04-18 04:40 | 46.97722 | -64.67533 | 38025 ft | 419 kts | 237° |
| 2026-04-18 04:41 | 46.94238 | -64.74415 | 38011 ft | 420 kts | 237° |
| 2026-04-18 04:41 | 46.90723 | -64.81342 | 38013 ft | 422 kts | 237° |
| 2026-04-18 04:42 | 46.87212 | -64.88245 | 38018 ft | 421 kts | 237° |
| 2026-04-18 04:42 | 46.83708 | -64.95115 | 37998 ft | 423 kts | 237° |
| 2026-04-18 04:43 | 46.80177 | -65.02020 | 38004 ft | 423 kts | 237° |
| 2026-04-18 04:43 | 46.76657 | -65.08888 | 38003 ft | 423 kts | 237° |
| 2026-04-18 04:44 | 46.73159 | -65.15696 | 38014 ft | 425 kts | 237° |
| 2026-04-18 04:44 | 46.69622 | -65.22563 | 37987 ft | 423 kts | 237° |
| 2026-04-18 04:45 | 46.66088 | -65.29408 | 38004 ft | 427 kts | 237° |
| 2026-04-18 04:45 | 46.62539 | -65.36266 | 38013 ft | 426 kts | 237° |
| 2026-04-18 04:46 | 46.58978 | -65.43126 | 37999 ft | 424 kts | 237° |
| 2026-04-18 04:46 | 46.55438 | -65.49933 | 37994 ft | 426 kts | 237° |
| 2026-04-18 04:47 | 46.51883 | -65.56750 | 37984 ft | 426 kts | 236° |
| 2026-04-18 04:47 | 46.48410 | -65.63394 | 38021 ft | 426 kts | 237° |
| 2026-04-18 04:48 | 46.45022 | -65.69861 | 37993 ft | 428 kts | 236° |
| 2026-04-18 04:48 | 46.41422 | -65.76714 | 38045 ft | 427 kts | 236° |
| 2026-04-18 04:49 | 46.37806 | -65.83583 | 37966 ft | 429 kts | 236° |
| 2026-04-18 04:49 | 46.34377 | -65.90082 | 37994 ft | 432 kts | 236° |
| 2026-04-18 04:50 | 46.30988 | -65.96488 | 37963 ft | 430 kts | 235° |
| 2026-04-18 04:50 | 46.27474 | -66.03116 | 38012 ft | 431 kts | 236° |
| 2026-04-18 04:51 | 46.23855 | -66.09925 | 37980 ft | 432 kts | 235° |
| 2026-04-18 04:51 | 46.20118 | -66.16939 | 38011 ft | 433 kts | 235° |
| 2026-04-18 04:52 | 46.16606 | -66.23515 | 38024 ft | 435 kts | 235° |
| 2026-04-18 04:52 | 46.13053 | -66.30150 | 37985 ft | 431 kts | 235° |
| 2026-04-18 04:53 | 46.09437 | -66.36890 | 38017 ft | 436 kts | 235° |
| 2026-04-18 04:53 | 46.05710 | -66.43817 | 37973 ft | 435 kts | 235° |
| 2026-04-18 04:54 | 46.02007 | -66.50683 | 37996 ft | 436 kts | 235° |
| 2026-04-18 04:54 | 45.98313 | -66.57516 | 37952 ft | 434 kts | 235° |
| 2026-04-18 04:55 | 45.94561 | -66.64439 | 37963 ft | 436 kts | 235° |
| 2026-04-18 04:55 | 45.90831 | -66.71307 | 37934 ft | 438 kts | 234° |
| 2026-04-18 04:56 | 45.85199 | -66.81643 | 37942 ft | 439 kts | 234° |
| 2026-04-18 04:56 | 45.81464 | -66.88474 | 38079 ft | 435 kts | 234° |
| 2026-04-18 04:57 | 45.79602 | -66.91876 | 37968 ft | 438 kts | 234° |
| 2026-04-18 04:57 | 45.77728 | -66.95293 | 37979 ft | 435 kts | 234° |
| 2026-04-18 04:57 | 45.73974 | -67.02129 | 37964 ft | 440 kts | 234° |
| 2026-04-18 04:58 | 45.70222 | -67.08942 | 37984 ft | 436 kts | 234° |
| 2026-04-18 04:58 | 45.66435 | -67.15804 | 37999 ft | 437 kts | 234° |
| 2026-04-18 04:59 | 45.62679 | -67.22592 | 37996 ft | 438 kts | 234° |
| 2026-04-18 04:59 | 45.58883 | -67.29436 | 38007 ft | 436 kts | 234° |
| 2026-04-18 05:00 | 45.55078 | -67.36280 | 38061 ft | 440 kts | 234° |
| 2026-04-18 05:00 | 45.53181 | -67.39687 | 37937 ft | 440 kts | 234° |
| 2026-04-18 05:00 | 45.51271 | -67.43111 | 38168 ft | 439 kts | 234° |
| 2026-04-18 05:01 | 45.49353 | -67.46549 | 37999 ft | 441 kts | 234° |
| 2026-04-18 05:01 | 45.47459 | -67.49937 | 38147 ft | 440 kts | 234° |
| 2026-04-18 05:01 | 45.45541 | -67.53362 | 37824 ft | 441 kts | 234° |
| 2026-04-18 05:01 | 45.43668 | -67.56703 | 37976 ft | 437 kts | 234° |
| 2026-04-18 05:02 | 45.39831 | -67.63540 | 37997 ft | 437 kts | 234° |
| 2026-04-18 05:02 | 45.36000 | -67.70335 | 37930 ft | 439 kts | 232° |
| 2026-04-18 05:03 | 45.31532 | -67.76469 | 38169 ft | 448 kts | 224° |
| 2026-04-18 05:03 | 45.29174 | -67.79388 | 37994 ft | 448 kts | 224° |
| 2026-04-18 05:03 | 45.26873 | -67.82218 | 37989 ft | 443 kts | 223° |
| 2026-04-18 05:04 | 45.22144 | -67.87968 | 37988 ft | 446 kts | 223° |
| 2026-04-18 05:04 | 45.17392 | -67.93681 | 38011 ft | 448 kts | 223° |
| 2026-04-18 05:05 | 45.12619 | -67.99383 | 37970 ft | 447 kts | 223° |
| 2026-04-18 05:05 | 45.07883 | -68.05015 | 37975 ft | 446 kts | 223° |
| 2026-04-18 05:06 | 45.03128 | -68.10651 | 37987 ft | 444 kts | 223° |
| 2026-04-18 05:06 | 44.98368 | -68.16278 | 37983 ft | 449 kts | 223° |
| 2026-04-18 05:07 | 44.93601 | -68.21897 | 37984 ft | 450 kts | 223° |
| 2026-04-18 05:07 | 44.88802 | -68.27540 | 37991 ft | 448 kts | 223° |
| 2026-04-18 05:08 | 44.84020 | -68.33152 | 37988 ft | 449 kts | 223° |
| 2026-04-18 05:08 | 44.79269 | -68.38712 | 37990 ft | 448 kts | 223° |
| 2026-04-18 05:09 | 44.74493 | -68.44291 | 37991 ft | 447 kts | 223° |
| 2026-04-18 05:09 | 44.69744 | -68.49826 | 37975 ft | 451 kts | 223° |
| 2026-04-18 05:10 | 44.64946 | -68.55405 | 37976 ft | 451 kts | 223° |
| 2026-04-18 05:10 | 44.60169 | -68.60947 | 37993 ft | 448 kts | 223° |
| 2026-04-18 05:11 | 44.55367 | -68.66506 | 37969 ft | 446 kts | 222° |
| 2026-04-18 05:11 | 44.50483 | -68.72147 | 37981 ft | 448 kts | 222° |
| 2026-04-18 05:12 | 44.45711 | -68.77648 | 37960 ft | 448 kts | 222° |
| 2026-04-18 05:12 | 44.40934 | -68.83142 | 37987 ft | 451 kts | 222° |
| 2026-04-18 05:13 | 44.36077 | -68.88716 | 37959 ft | 450 kts | 222° |
| 2026-04-18 05:13 | 44.31291 | -68.94195 | 37992 ft | 449 kts | 222° |
| 2026-04-18 05:14 | 44.26461 | -68.99715 | 37983 ft | 448 kts | 222° |
| 2026-04-18 05:14 | 44.21676 | -69.05169 | 37964 ft | 450 kts | 222° |
| 2026-04-18 05:15 | 44.16876 | -69.10629 | 37982 ft | 450 kts | 222° |
| 2026-04-18 05:15 | 44.11912 | -69.16262 | 38004 ft | 449 kts | 222° |
| 2026-04-18 05:16 | 44.06917 | -69.21920 | 37955 ft | 449 kts | 222° |
| 2026-04-18 05:16 | 44.01859 | -69.27634 | 37207 ft | 446 kts | 222° |
| 2026-04-18 05:17 | 43.99410 | -69.30397 | 36374 ft | 447 kts | 222° |
| 2026-04-18 05:17 | 43.96925 | -69.33197 | 35634 ft | 445 kts | 222° |
| 2026-04-18 05:17 | 43.94466 | -69.35965 | 34879 ft | 445 kts | 221° |
| 2026-04-18 05:17 | 43.91999 | -69.38738 | 34058 ft | 445 kts | 221° |
| 2026-04-18 05:18 | 43.89545 | -69.41496 | 33396 ft | 455 kts | 221° |
| 2026-04-18 05:18 | 43.86969 | -69.44390 | 32488 ft | 480 kts | 222° |
| 2026-04-18 05:18 | 43.84322 | -69.47356 | 31553 ft | 483 kts | 222° |
| 2026-04-18 05:18 | 43.81725 | -69.50261 | 30765 ft | 483 kts | 222° |
| 2026-04-18 05:19 | 43.79080 | -69.53216 | 30274 ft | 477 kts | 223° |
| 2026-04-18 05:19 | 43.76510 | -69.56084 | 29699 ft | 472 kts | 222° |
| 2026-04-18 05:19 | 43.73821 | -69.58765 | 29155 ft | 469 kts | 214° |
| 2026-04-18 05:19 | 43.70871 | -69.60834 | 28620 ft | 468 kts | 205° |
| 2026-04-18 05:20 | 43.67786 | -69.62368 | 28281 ft | 471 kts | 202° |
| 2026-04-18 05:20 | 43.64651 | -69.63828 | 27928 ft | 477 kts | 201° |
| 2026-04-18 05:20 | 43.61499 | -69.65276 | 27513 ft | 476 kts | 201° |
| 2026-04-18 05:20 | 43.58259 | -69.66756 | 27130 ft | 475 kts | 200° |
| 2026-04-18 05:21 | 43.55100 | -69.68192 | 26718 ft | 474 kts | 200° |
| 2026-04-18 05:21 | 43.51881 | -69.69650 | 26327 ft | 469 kts | 200° |
| 2026-04-18 05:21 | 43.48741 | -69.71069 | 25922 ft | 468 kts | 200° |
| 2026-04-18 05:21 | 43.45674 | -69.72452 | 25512 ft | 462 kts | 200° |
| 2026-04-18 05:22 | 43.42622 | -69.73824 | 25137 ft | 455 kts | 200° |
| 2026-04-18 05:22 | 43.39783 | -69.75100 | 24807 ft | 458 kts | 199° |
| 2026-04-18 05:22 | 43.36724 | -69.76473 | 24426 ft | 459 kts | 199° |
| 2026-04-18 05:22 | 43.33704 | -69.77826 | 24048 ft | 455 kts | 199° |
| 2026-04-18 05:23 | 43.30703 | -69.79169 | 23668 ft | 455 kts | 199° |
| 2026-04-18 05:23 | 43.27681 | -69.80518 | 23280 ft | 453 kts | 199° |
| 2026-04-18 05:23 | 43.24699 | -69.81849 | 22904 ft | 450 kts | 199° |
| 2026-04-18 05:23 | 43.21717 | -69.83178 | 22519 ft | 447 kts | 199° |
| 2026-04-18 05:24 | 43.18895 | -69.84435 | 22155 ft | 444 kts | 198° |
| 2026-04-18 05:24 | 43.15928 | -69.85754 | 21773 ft | 443 kts | 198° |
| 2026-04-18 05:24 | 43.12968 | -69.87070 | 21432 ft | 441 kts | 198° |
| 2026-04-18 05:24 | 43.10001 | -69.88386 | 21048 ft | 437 kts | 199° |
| 2026-04-18 05:25 | 43.07084 | -69.89679 | 20683 ft | 433 kts | 199° |
| 2026-04-18 05:25 | 43.04227 | -69.90945 | 20274 ft | 431 kts | 199° |
| 2026-04-18 05:25 | 43.01278 | -69.92250 | 19953 ft | 431 kts | 199° |
| 2026-04-18 05:25 | 42.98380 | -69.93533 | 19585 ft | 430 kts | 199° |
| 2026-04-18 05:26 | 42.95505 | -69.94804 | 19215 ft | 425 kts | 199° |
| 2026-04-18 05:26 | 42.93058 | -69.95884 | 18898 ft | 422 kts | 199° |
| 2026-04-18 05:26 | 42.90217 | -69.97137 | 18507 ft | 421 kts | 199° |
| 2026-04-18 05:26 | 42.87388 | -69.98384 | 18138 ft | 414 kts | 199° |
| 2026-04-18 05:27 | 42.84629 | -69.99599 | 18024 ft | 399 kts | 199° |
| 2026-04-18 05:27 | 42.82027 | -70.00742 | 17945 ft | 381 kts | 199° |
| 2026-04-18 05:27 | 42.79527 | -70.01841 | 17725 ft | 362 kts | 199° |
| 2026-04-18 05:27 | 42.77193 | -70.02866 | 17452 ft | 346 kts | 199° |
| 2026-04-18 05:28 | 42.74942 | -70.03870 | 17123 ft | 334 kts | 201° |
| 2026-04-18 05:28 | 42.72762 | -70.04956 | 16636 ft | 327 kts | 202° |
| 2026-04-18 05:28 | 42.70615 | -70.06040 | 16075 ft | 326 kts | 202° |
| 2026-04-18 05:28 | 42.68541 | -70.07323 | 15668 ft | 323 kts | 212° |
| 2026-04-18 05:29 | 42.66701 | -70.08993 | 15357 ft | 317 kts | 221° |
| 2026-04-18 05:29 | 42.65140 | -70.10946 | 15116 ft | 316 kts | 230° |
| 2026-04-18 05:29 | 42.63813 | -70.13195 | 14870 ft | 313 kts | 238° |
| 2026-04-18 05:29 | 42.62722 | -70.15762 | 14601 ft | 308 kts | 246° |
| 2026-04-18 05:30 | 42.61790 | -70.18415 | 14327 ft | 307 kts | 246° |
| 2026-04-18 05:30 | 42.60863 | -70.21072 | 14042 ft | 306 kts | 247° |
| 2026-04-18 05:30 | 42.60010 | -70.23705 | 13785 ft | 305 kts | 252° |
| 2026-04-18 05:30 | 42.59295 | -70.26459 | 13629 ft | 303 kts | 253° |
| 2026-04-18 05:31 | 42.58604 | -70.29229 | 13429 ft | 302 kts | 253° |
| 2026-04-18 05:31 | 42.57923 | -70.31947 | 13227 ft | 301 kts | 253° |
| 2026-04-18 05:31 | 42.57245 | -70.34634 | 13059 ft | 301 kts | 253° |
| 2026-04-18 05:31 | 42.56566 | -70.37319 | 12813 ft | 301 kts | 253° |
| 2026-04-18 05:32 | 42.55880 | -70.40025 | 12610 ft | 300 kts | 253° |
| 2026-04-18 05:32 | 42.55196 | -70.42721 | 12442 ft | 298 kts | 253° |
| 2026-04-18 05:32 | 42.54512 | -70.45413 | 12231 ft | 299 kts | 254° |
| 2026-04-18 05:32 | 42.53832 | -70.48090 | 12036 ft | 300 kts | 254° |
| 2026-04-18 05:33 | 42.53141 | -70.50802 | 11878 ft | 298 kts | 254° |
| 2026-04-18 05:33 | 42.52469 | -70.53541 | 11637 ft | 295 kts | 256° |
| 2026-04-18 05:33 | 42.51871 | -70.56188 | 11412 ft | 292 kts | 256° |
| 2026-04-18 05:33 | 42.51266 | -70.58858 | 11272 ft | 295 kts | 256° |
| 2026-04-18 05:34 | 42.50674 | -70.61445 | 11078 ft | 295 kts | 256° |
| 2026-04-18 05:34 | 42.50054 | -70.64132 | 10905 ft | 291 kts | 256° |
| 2026-04-18 05:34 | 42.49437 | -70.66800 | 10726 ft | 290 kts | 255° |
| 2026-04-18 05:34 | 42.48836 | -70.69402 | 10541 ft | 290 kts | 255° |
| 2026-04-18 05:35 | 42.48230 | -70.72018 | 10347 ft | 292 kts | 255° |
| 2026-04-18 05:35 | 42.47619 | -70.74653 | 10155 ft | 288 kts | 255° |
| 2026-04-18 05:35 | 42.47017 | -70.77241 | 9984 ft | 279 kts | 255° |
| 2026-04-18 05:35 | 42.46433 | -70.79750 | 9774 ft | 271 kts | 255° |
| 2026-04-18 05:36 | 42.45748 | -70.82166 | 9513 ft | 267 kts | 242° |
| 2026-04-18 05:36 | 42.44575 | -70.84127 | 9322 ft | 262 kts | 229° |
| 2026-04-18 05:36 | 42.43332 | -70.85853 | 9172 ft | 259 kts | 227° |
| 2026-04-18 05:36 | 42.42006 | -70.87636 | 9010 ft | 262 kts | 226° |
| 2026-04-18 05:37 | 42.40478 | -70.88969 | 8815 ft | 261 kts | 206° |
| 2026-04-18 05:37 | 42.38832 | -70.89829 | 8611 ft | 250 kts | 201° |
| 2026-04-18 05:37 | 42.37156 | -70.90632 | 8120 ft | 251 kts | 200° |
| 2026-04-18 05:37 | 42.35483 | -70.91430 | 7665 ft | 249 kts | 200° |
| 2026-04-18 05:38 | 42.33786 | -70.92241 | 7231 ft | 247 kts | 200° |
| 2026-04-18 05:38 | 42.32130 | -70.93034 | 6780 ft | 246 kts | 200° |
| 2026-04-18 05:38 | 42.30464 | -70.93822 | 6352 ft | 244 kts | 199° |
| 2026-04-18 05:38 | 42.28841 | -70.94518 | 5913 ft | 243 kts | 198° |
| 2026-04-18 05:39 | 42.27228 | -70.95205 | 5490 ft | 242 kts | 198° |
| 2026-04-18 05:39 | 42.25627 | -70.95889 | 5061 ft | 241 kts | 197° |
| 2026-04-18 05:39 | 42.24121 | -70.96533 | 4671 ft | 240 kts | 197° |
| 2026-04-18 05:39 | 42.22528 | -70.97216 | 4243 ft | 239 kts | 197° |
| 2026-04-18 05:40 | 42.20956 | -70.97890 | 3860 ft | 237 kts | 197° |
| 2026-04-18 05:40 | 42.19386 | -70.98563 | 3447 ft | 237 kts | 196° |
| 2026-04-18 05:40 | 42.17861 | -70.99215 | 3238 ft | 226 kts | 196° |
| 2026-04-18 05:40 | 42.16428 | -70.99869 | 3200 ft | 209 kts | 198° |
| 2026-04-18 05:41 | 42.15080 | -71.00509 | 3014 ft | 203 kts | 198° |
| 2026-04-18 05:41 | 42.13811 | -71.01263 | 2900 ft | 203 kts | 219° |
| 2026-04-18 05:41 | 42.13016 | -71.02792 | 2878 ft | 201 kts | 258° |
| 2026-04-18 05:41 | 42.13015 | -71.04604 | 2894 ft | 194 kts | 285° |
| 2026-04-18 05:42 | 42.13441 | -71.06242 | 2884 ft | 187 kts | 311° |
| 2026-04-18 05:42 | 42.14262 | -71.07590 | 2896 ft | 186 kts | 316° |
| 2026-04-18 05:42 | 42.15113 | -71.08928 | 2895 ft | 186 kts | 316° |
| 2026-04-18 05:42 | 42.16008 | -71.10068 | 2884 ft | 179 kts | 339° |
| 2026-04-18 05:43 | 42.17179 | -71.10262 | 2883 ft | 170 kts | 18° |
| 2026-04-18 05:43 | 42.18122 | -71.09458 | 2899 ft | 169 kts | 38° |
| 2026-04-18 05:43 | 42.19161 | -71.08744 | 2898 ft | 170 kts | 21° |
| 2026-04-18 05:43 | 42.20287 | -71.08251 | 2893 ft | 172 kts | 20° |
| 2026-04-18 05:44 | 42.21382 | -71.07754 | 2892 ft | 171 kts | 21° |
| 2026-04-18 05:44 | 42.22523 | -71.07210 | 2697 ft | 174 kts | 21° |
| 2026-04-18 05:44 | 42.23639 | -71.06676 | 2480 ft | 166 kts | 21° |
| 2026-04-18 05:44 | 42.24735 | -71.06152 | 2269 ft | 168 kts | 22° |
| 2026-04-18 05:45 | 42.25819 | -71.05632 | 2052 ft | 168 kts | 22° |
| 2026-04-18 05:45 | 42.26855 | -71.05138 | 1836 ft | 150 kts | 22° |
| 2026-04-18 05:45 | 42.27785 | -71.04694 | 1649 ft | 143 kts | 23° |
| 2026-04-18 05:45 | 42.28694 | -71.04256 | 1461 ft | 142 kts | 23° |
| 2026-04-18 05:46 | 42.29602 | -71.03818 | 1273 ft | 143 kts | 22° |
| 2026-04-18 05:46 | 42.30567 | -71.03356 | 1072 ft | 144 kts | 22° |
| 2026-04-18 05:46 | 42.31520 | -71.02897 | 872 ft | 145 kts | 22° |
| 2026-04-18 05:46 | 42.32466 | -71.02442 | 678 ft | 147 kts | 22° |
| 2026-04-18 05:47 | 42.33405 | -71.01997 | 464 ft | 148 kts | 22° |
| 2026-04-18 05:47 | 42.34347 | -71.01537 | 264 ft | 148 kts | 21° |
| 2026-04-18 05:47 | 42.35296 | -71.01088 | 78 ft | 147 kts | 22° |
| 2026-04-18 05:47 | 42.36213 | -71.00643 | 22 ft | 126 kts | 21° |
| 2026-04-18 05:48 | 42.36900 | -71.00309 | 18 ft | 82 kts | 20° |
| 2026-04-18 05:48 | 42.37294 | -71.00119 | 18 ft | 44 kts | 19° |
| 2026-04-18 05:48 | 42.37492 | -71.00021 | 15 ft | 17 kts | 21° |
| 2026-04-18 05:48 | 42.37575 | -71.00017 | 15 ft | 11 kts | 329° |
| 2026-04-18 05:49 | 42.37637 | -71.00084 | 17 ft | 10 kts | 320° |
| 2026-04-18 05:49 | 42.37689 | -71.00142 | 17 ft | 9 kts | 320° |
| 2026-04-18 05:49 | 42.37736 | -71.00206 | 17 ft | 9 kts | 296° |
| 2026-04-18 05:49 | 42.37761 | -71.00289 | 18 ft | 9 kts | 290° |
| 2026-04-18 05:50 | 42.37783 | -71.00371 | 18 ft | 9 kts | 290° |
| 2026-04-18 05:50 | 42.37803 | -71.00447 | 18 ft | 9 kts | 290° |
| 2026-04-18 05:50 | 42.37826 | -71.00532 | 18 ft | 10 kts | 290° |
| 2026-04-18 05:50 | 42.37837 | -71.00620 | 18 ft | 9 kts | 250° |
| 2026-04-18 05:51 | 42.37785 | -71.00670 | 18 ft | 10 kts | 200° |
| 2026-04-18 05:51 | 42.37706 | -71.00708 | 18 ft | 12 kts | 199° |
| 2026-04-18 05:51 | 42.37618 | -71.00751 | 18 ft | 14 kts | 199° |
| 2026-04-18 05:51 | 42.37519 | -71.00800 | 18 ft | 16 kts | 200° |
| 2026-04-18 05:52 | 42.37408 | -71.00853 | 18 ft | 17 kts | 199° |
| 2026-04-18 05:52 | 42.37302 | -71.00903 | 18 ft | 16 kts | 202° |
| 2026-04-18 05:52 | 42.37204 | -71.00967 | 18 ft | 15 kts | 206° |
| 2026-04-18 05:52 | 42.37109 | -71.01029 | 19 ft | 14 kts | 206° |
| 2026-04-18 05:53 | 42.37027 | -71.01083 | 21 ft | 13 kts | 205° |
| 2026-04-18 05:53 | 42.36957 | -71.01140 | 21 ft | 12 kts | 220° |
| 2026-04-18 05:53 | 42.36900 | -71.01211 | 21 ft | 11 kts | 235° |
| 2026-04-18 05:53 | 42.36908 | -71.01302 | 22 ft | 11 kts | 314° |
| 2026-04-18 05:54 | 42.36966 | -71.01379 | 22 ft | 14 kts | 315° |
| 2026-04-18 05:54 | 42.37041 | -71.01478 | 21 ft | 17 kts | 315° |
| 2026-04-18 05:54 | 42.37121 | -71.01585 | 21 ft | 16 kts | 315° |
| 2026-04-18 05:54 | 42.37195 | -71.01682 | 21 ft | 15 kts | 315° |
| 2026-04-18 05:55 | 42.37266 | -71.01781 | 21 ft | 14 kts | 314° |
| 2026-04-18 05:55 | 42.37299 | -71.01856 | 21 ft | 9 kts | 259° |
| 2026-04-18 05:55 | 42.37259 | -71.01921 | 22 ft | 10 kts | 224° |
| 2026-04-18 05:55 | 42.37234 | -71.01992 | 22 ft | 9 kts | 275° |
| 2026-04-18 05:56 | 42.37236 | -71.02074 | 22 ft | 6 kts | 250° |
| 2026-04-18 05:56 | 42.37206 | -71.02092 | 22 ft | 4 kts | 175° |
| 2026-04-18 05:56 | 42.37176 | -71.02089 | 22 ft | 4 kts | 175° |
| 2026-04-18 05:56 | 42.37158 | -71.02087 | 22 ft | 1 kts | 176° |
| 2026-04-18 05:57 | 42.37155 | -71.02087 | 22 ft | 0 kts | 176° |